Observation data for Menard on 04/08/2021      Previous  Date  Next       Current Mesonet Observations  Soil Data  Daily Summary Page  Observations in Plain Language
KMD1 080500Z 36001KT 10/01 A299 RMK A01 T00970006  RH  053%=      5-min Rain = 0
KMD1 080501Z 01001KT 10/00 A299 RMK A01 T00960004  RH  052%=      5-min Rain = 0
KMD1 080502Z 01002KT 10/00 A299 RMK A01 T00980001  RH  051%=      5-min Rain = 0
KMD1 080503Z 35002KT 10/M00 A299 RMK A01 T00981002  RH  050%=      5-min Rain = 0
KMD1 080504Z 35002KT 10/M00 A299 RMK A01 T00981003  RH  050%=      5-min Rain = 0
KMD1 080505Z 35002KT 10/M00 A299 RMK A01 T00971003  RH  050%=      5-min Rain = 0
KMD1 080506Z 36001KT 10/M00 A299 RMK A01 T00971003  RH  050%=      5-min Rain = 0
KMD1 080507Z 35002KT 10/M00 A299 RMK A01 T00961003  RH  050%=      5-min Rain = 0
KMD1 080508Z 36002KT 10/M00 A299 RMK A01 T00951003  RH  050%=      5-min Rain = 0
KMD1 080509Z 02002KT 10/M00 A299 RMK A01 T00961003  RH  050%=      5-min Rain = 0
KMD1 080510Z 01002KT 10/M00 A299 RMK A01 T00961003  RH  050%=      5-min Rain = 0
KMD1 080511Z 01002KT 10/M00 A299 RMK A01 T00951004  RH  050%=      5-min Rain = 0
KMD1 080512Z 01003KT 10/M00 A299 RMK A01 T00951003  RH  050%=      5-min Rain = 0
KMD1 080513Z 00003KT 10/M00 A299 RMK A01 T00951004  RH  050%=      5-min Rain = 0
KMD1 080514Z 36004KT 10/M00 A299 RMK A01 T00951004  RH  050%=      5-min Rain = 0
KMD1 080515Z 35004KT 09/M00 A299 RMK A01 T00941003  RH  051%=      5-min Rain = 0
KMD1 080516Z 35003KT 09/M00 A299 RMK A01 T00941003  RH  051%=      5-min Rain = 0
KMD1 080517Z 35004KT 09/M00 A299 RMK A01 T00941002  RH  051%=      5-min Rain = 0
KMD1 080518Z 36004KT 09/M00 A299 RMK A01 T00931002  RH  052%=      5-min Rain = 0
KMD1 080519Z 35003KT 09/M00 A299 RMK A01 T00921001  RH  052%=      5-min Rain = 0
KMD1 080520Z 35002KT 09/M00 A299 RMK A01 T00901002  RH  052%=      5-min Rain = 0
KMD1 080521Z 35001KT 09/M00 A299 RMK A01 T00881003  RH  053%=      5-min Rain = 0
KMD1 080522Z 32000KT 09/M00 A299 RMK A01 T00871002  RH  054%=      5-min Rain = 0
KMD1 080523Z 21001KT 09/M00 A299 RMK A01 T00871001  RH  054%=      5-min Rain = 0
KMD1 080524Z 21000KT 09/00 A299 RMK A01 T00880001  RH  054%=      5-min Rain = 0
KMD1 080525Z 22000KT 09/00 A299 RMK A01 T00890001  RH  054%=      5-min Rain = 0
KMD1 080526Z 00000KT 09/00 A299 RMK A01 T00890000  RH  054%=      5-min Rain = 0
KMD1 080527Z 00000KT 09/00 A299 RMK A01 T00880000  RH  054%=      5-min Rain = 0
KMD1 080528Z 29000KT 09/00 A299 RMK A01 T00880001  RH  054%=      5-min Rain = 0
KMD1 080529Z 32000KT 09/00 A299 RMK A01 T00880003  RH  055%=      5-min Rain = 0
KMD1 080530Z 32001KT 09/00 A299 RMK A01 T00890004  RH  055%=      5-min Rain = 0
KMD1 080531Z 32001KT 09/00 A299 RMK A01 T00900003  RH  054%=      5-min Rain = 0
KMD1 080532Z 33000KT 09/00 A299 RMK A01 T00890002  RH  054%=      5-min Rain = 0
KMD1 080533Z 33001KT 09/00 A299 RMK A01 T00870001  RH  055%=      5-min Rain = 0
KMD1 080534Z 35002KT 09/00 A299 RMK A01 T00860003  RH  056%=      5-min Rain = 0
KMD1 080535Z 00001KT 09/00 A299 RMK A01 T00870004  RH  056%=      5-min Rain = 0
KMD1 080536Z 00000KT 09/00 A299 RMK A01 T00880002  RH  055%=      5-min Rain = 0
KMD1 080537Z 35000KT 09/00 A299 RMK A01 T00870001  RH  054%=      5-min Rain = 0
KMD1 080538Z 00000KT 09/M00 A299 RMK A01 T00871001  RH  054%=      5-min Rain = 0
KMD1 080539Z 00000KT 09/M00 A299 RMK A01 T00871002  RH  053%=      5-min Rain = 0
KMD1 080540Z 00000KT 09/M00 A299 RMK A01 T00881004  RH  052%=      5-min Rain = 0
KMD1 080541Z 00000KT 09/M00 A299 RMK A01 T00901003  RH  052%=      5-min Rain = 0
KMD1 080542Z 19000KT 09/M00 A299 RMK A01 T00891003  RH  052%=      5-min Rain = 0
KMD1 080543Z 19000KT 09/M00 A299 RMK A01 T00891004  RH  052%=      5-min Rain = 0
KMD1 080544Z 31000KT 09/M00 A299 RMK A01 T00881004  RH  052%=      5-min Rain = 0
KMD1 080545Z 36000KT 09/M00 A299 RMK A01 T00881003  RH  053%=      5-min Rain = 0
KMD1 080546Z 35002KT 09/M00 A299 RMK A01 T00891003  RH  052%=      5-min Rain = 0
KMD1 080547Z 35002KT 09/M00 A299 RMK A01 T00901003  RH  052%=      5-min Rain = 0
KMD1 080548Z 36003KT 09/M00 A2989 RMK A01 T00911003  RH  052%=      5-min Rain = 0
KMD1 080549Z 35002KT 09/M00 A2989 RMK A01 T00911003  RH  052%=      5-min Rain = 0
KMD1 080550Z 35002KT 09/M00 A2989 RMK A01 T00891003  RH  052%=      5-min Rain = 0
KMD1 080551Z 36003KT 09/M00 A2989 RMK A01 T00871003  RH  053%=      5-min Rain = 0
KMD1 080552Z 35004KT 09/M00 A2989 RMK A01 T00851003  RH  054%=      5-min Rain = 0
KMD1 080553Z 35004KT 08/M00 A2989 RMK A01 T00841002  RH  055%=      5-min Rain = 0
KMD1 080554Z 35003KT 08/M00 A2989 RMK A01 T00841003  RH  054%=      5-min Rain = 0
KMD1 080555Z 36003KT 09/M00 A2989 RMK A01 T00851003  RH  054%=      5-min Rain = 0
KMD1 080556Z 01003KT 09/M00 A2989 RMK A01 T00851003  RH  054%=      5-min Rain = 0
KMD1 080557Z 00003KT 09/M00 A2989 RMK A01 T00851003  RH  054%=      5-min Rain = 0
KMD1 080558Z 36004KT 09/M00 A2989 RMK A01 T00851003  RH  054%=      5-min Rain = 0
KMD1 080559Z 00004KT 09/M00 A2989 RMK A01 T00851003  RH  054%=      5-min Rain = 0
KMD1 080600Z 00004KT 09/M00 A2989 RMK A01 T00851003  RH  054%=      5-min Rain = 0
KMD1 080601Z 35004KT 09/M00 A2989 RMK A01 T00851003  RH  054%=      5-min Rain = 0
KMD1 080602Z 35004KT 09/M00 A2989 RMK A01 T00861003  RH  054%=      5-min Rain = 0
KMD1 080603Z 35004KT 09/M00 A2989 RMK A01 T00861003  RH  054%=      5-min Rain = 0
KMD1 080604Z 35003KT 09/M00 A2989 RMK A01 T00861002  RH  054%=      5-min Rain = 0
KMD1 080605Z 35002KT 09/M00 A2989 RMK A01 T00871002  RH  054%=      5-min Rain = 0
KMD1 080606Z 33000KT 09/M00 A2989 RMK A01 T00881002  RH  053%=      5-min Rain = 0
KMD1 080607Z 26001KT 09/M00 A2989 RMK A01 T00881002  RH  053%=      5-min Rain = 0
KMD1 080608Z 25000KT 09/00 A2989 RMK A01 T00880004  RH  055%=      5-min Rain = 0
KMD1 080609Z 00000KT 09/00 A2989 RMK A01 T00870004  RH  056%=      5-min Rain = 0
KMD1 080610Z 20000KT 09/01 A2989 RMK A01 T00850008  RH  058%=      5-min Rain = 0
KMD1 080611Z 33000KT 08/01 A2989 RMK A01 T00840012  RH  060%=      5-min Rain = 0
KMD1 080612Z 00000KT 08/01 A2989 RMK A01 T00830011  RH  060%=      5-min Rain = 0
KMD1 080613Z 00000KT 08/01 A2989 RMK A01 T00820011  RH  061%=      5-min Rain = 0
KMD1 080614Z 22000KT 08/01 A2989 RMK A01 T00810008  RH  060%=      5-min Rain = 0
KMD1 080615Z 20000KT 08/01 A2989 RMK A01 T00800009  RH  061%=      5-min Rain = 0
KMD1 080616Z 20001KT 08/01 A2989 RMK A01 T00790010  RH  062%=      5-min Rain = 0
KMD1 080617Z 22001KT 08/01 A2989 RMK A01 T00780009  RH  062%=      5-min Rain = 0
KMD1 080618Z 21001KT 08/01 A2989 RMK A01 T00770008  RH  061%=      5-min Rain = 0
KMD1 080619Z 25001KT 08/01 A2989 RMK A01 T00770007  RH  061%=      5-min Rain = 0
KMD1 080620Z 26000KT 08/01 A2989 RMK A01 T00770007  RH  061%=      5-min Rain = 0
KMD1 080621Z 21000KT 08/01 A2989 RMK A01 T00770007  RH  061%=      5-min Rain = 0
KMD1 080622Z 00000KT 08/01 A2989 RMK A01 T00770006  RH  061%=      5-min Rain = 0
KMD1 080623Z 00000KT 08/01 A2989 RMK A01 T00770009  RH  062%=      5-min Rain = 0
KMD1 080624Z 00000KT 08/01 A2989 RMK A01 T00770011  RH  063%=      5-min Rain = 0
KMD1 080625Z 35001KT 08/01 A2989 RMK A01 T00770011  RH  063%=      5-min Rain = 0
KMD1 080626Z 35000KT 08/01 A2989 RMK A01 T00780011  RH  062%=      5-min Rain = 0
KMD1 080627Z 00000KT 08/01 A2989 RMK A01 T00790010  RH  062%=      5-min Rain = 0
KMD1 080628Z 00000KT 08/01 A2989 RMK A01 T00790010  RH  061%=      5-min Rain = 0
KMD1 080629Z 00000KT 08/01 A2989 RMK A01 T00800009  RH  061%=      5-min Rain = 0
KMD1 080630Z 00000KT 08/01 A2989 RMK A01 T00800009  RH  061%=      5-min Rain = 0
KMD1 080631Z 00000KT 08/01 A2989 RMK A01 T00800008  RH  061%=      5-min Rain = 0
KMD1 080632Z 00000KT 08/01 A2989 RMK A01 T00790008  RH  061%=      5-min Rain = 0
KMD1 080633Z 00000KT 08/01 A2989 RMK A01 T00780008  RH  061%=      5-min Rain = 0
KMD1 080634Z 00000KT 08/01 A2989 RMK A01 T00780010  RH  062%=      5-min Rain = 0
KMD1 080635Z 00000KT 08/01 A2989 RMK A01 T00780009  RH  062%=      5-min Rain = 0
KMD1 080636Z 00000KT 08/01 A2989 RMK A01 T00780010  RH  062%=      5-min Rain = 0
KMD1 080637Z 00000KT 08/01 A2989 RMK A01 T00780009  RH  062%=      5-min Rain = 0
KMD1 080638Z 00000KT 08/01 A2989 RMK A01 T00780009  RH  062%=      5-min Rain = 0
KMD1 080639Z 00000KT 08/01 A2989 RMK A01 T00770007  RH  061%=      5-min Rain = 0
KMD1 080640Z 00000KT 08/01 A2989 RMK A01 T00750006  RH  062%=      5-min Rain = 0
KMD1 080641Z 00000KT 08/00 A2989 RMK A01 T00750003  RH  060%=      5-min Rain = 0
KMD1 080642Z 00000KT 08/M00 A2989 RMK A01 T00751002  RH  058%=      5-min Rain = 0
KMD1 080643Z 35000KT 08/M00 A2989 RMK A01 T00751004  RH  057%=      5-min Rain = 0
KMD1 080644Z 34000KT 08/M00 A2989 RMK A01 T00751003  RH  058%=      5-min Rain = 0
KMD1 080645Z 00000KT 08/M00 A2989 RMK A01 T00761003  RH  057%=      5-min Rain = 0
KMD1 080646Z 00000KT 08/M00 A2989 RMK A01 T00761003  RH  057%=      5-min Rain = 0
KMD1 080647Z 00000KT 08/M00 A2989 RMK A01 T00761002  RH  058%=      5-min Rain = 0
KMD1 080648Z 00000KT 08/M00 A2989 RMK A01 T00751002  RH  058%=      5-min Rain = 0
KMD1 080649Z 00000KT 08/M00 A2989 RMK A01 T00751002  RH  058%=      5-min Rain = 0
KMD1 080650Z 03000KT 07/M00 A2989 RMK A01 T00741004  RH  058%=      5-min Rain = 0
KMD1 080651Z 00002KT 07/M00 A2989 RMK A01 T00731004  RH  058%=      5-min Rain = 0
KMD1 080652Z 36006KT 07/M01 A2989 RMK A01 T00721005  RH  058%=      5-min Rain = 0
KMD1 080653Z 35007KT 07/M01 A2989 RMK A01 T00711006  RH  058%=      5-min Rain = 0
KMD1 080654Z 35006KT 07/M01 A2989 RMK A01 T00711005  RH  058%=      5-min Rain = 0
KMD1 080655Z 34006KT 07/M01 A2989 RMK A01 T00721005  RH  058%=      5-min Rain = 0
KMD1 080656Z 34005KT 07/M00 A2989 RMK A01 T00731004  RH  058%=      5-min Rain = 0
KMD1 080657Z 34004KT 07/M01 A2989 RMK A01 T00741005  RH  057%=      5-min Rain = 0
KMD1 080658Z 34004KT 08/M01 A2989 RMK A01 T00751005  RH  057%=      5-min Rain = 0
KMD1 080659Z 33003KT 08/M01 A2989 RMK A01 T00751005  RH  057%=      5-min Rain = 0
KMD1 080700Z 34004KT 07/M01 A2989 RMK A01 T00741005  RH  057%=      5-min Rain = 0
KMD1 080701Z 34003KT 07/M00 A2989 RMK A01 T00741004  RH  057%=      5-min Rain = 0
KMD1 080702Z 35004KT 07/M01 A2989 RMK A01 T00731005  RH  058%=      5-min Rain = 0
KMD1 080703Z 35004KT 07/M01 A2989 RMK A01 T00731005  RH  058%=      5-min Rain = 0
KMD1 080704Z 35005KT 07/M01 A2989 RMK A01 T00721005  RH  058%=      5-min Rain = 0
KMD1 080705Z 34006KT 07/M01 A2989 RMK A01 T00721005  RH  058%=      5-min Rain = 0
KMD1 080706Z 34005KT 07/M01 A2989 RMK A01 T00721005  RH  058%=      5-min Rain = 0
KMD1 080707Z 34005KT 07/M01 A2989 RMK A01 T00741005  RH  057%=      5-min Rain = 0
KMD1 080708Z 34004KT 08/M00 A2989 RMK A01 T00771004  RH  056%=      5-min Rain = 0
KMD1 080709Z 33004KT 08/M00 A2989 RMK A01 T00781004  RH  056%=      5-min Rain = 0
KMD1 080710Z 34004KT 08/M01 A2989 RMK A01 T00751005  RH  057%=      5-min Rain = 0
KMD1 080711Z 32002KT 07/M01 A2989 RMK A01 T00731006  RH  057%=      5-min Rain = 0
KMD1 080712Z 30002KT 07/M01 A2989 RMK A01 T00711005  RH  058%=      5-min Rain = 0
KMD1 080713Z 24002KT 07/M01 A2989 RMK A01 T00691005  RH  059%=      5-min Rain = 0
KMD1 080714Z 24002KT 07/M01 A2989 RMK A01 T00681005  RH  060%=      5-min Rain = 0
KMD1 080715Z 25002KT 07/00 A2989 RMK A01 T00680001  RH  063%=      5-min Rain = 0
KMD1 080716Z 25001KT 07/01 A2989 RMK A01 T00670009  RH  066%=      5-min Rain = 0
KMD1 080717Z 22001KT 07/01 A2989 RMK A01 T00680011  RH  067%=      5-min Rain = 0
KMD1 080718Z 22001KT 07/01 A2989 RMK A01 T00680009  RH  066%=      5-min Rain = 0
KMD1 080719Z 23001KT 07/01 A2989 RMK A01 T00670008  RH  066%=      5-min Rain = 0
KMD1 080720Z 23000KT 07/01 A2989 RMK A01 T00670009  RH  067%=      5-min Rain = 0
KMD1 080721Z 00000KT 07/01 A2989 RMK A01 T00670010  RH  067%=      5-min Rain = 0
KMD1 080722Z 00000KT 07/01 A2989 RMK A01 T00660010  RH  067%=      5-min Rain = 0
KMD1 080723Z 00000KT 07/00 A2989 RMK A01 T00660003  RH  064%=      5-min Rain = 0
KMD1 080724Z 00000KT 07/00 A2989 RMK A01 T00650002  RH  064%=      5-min Rain = 0
KMD1 080725Z 00000KT 07/00 A2988 RMK A01 T00650003  RH  064%=      5-min Rain = 0
KMD1 080726Z 00000KT 07/01 A2989 RMK A01 T00660005  RH  065%=      5-min Rain = 0
KMD1 080727Z 03000KT 07/01 A2988 RMK A01 T00660007  RH  066%=      5-min Rain = 0
KMD1 080728Z 18000KT 07/01 A2988 RMK A01 T00660008  RH  066%=      5-min Rain = 0
KMD1 080729Z 19000KT 07/01 A2988 RMK A01 T00670009  RH  066%=      5-min Rain = 0
KMD1 080730Z 24001KT 07/01 A2988 RMK A01 T00670008  RH  066%=      5-min Rain = 0
KMD1 080731Z 24002KT 07/01 A2989 RMK A01 T00660006  RH  065%=      5-min Rain = 0
KMD1 080732Z 24002KT 07/00 A2989 RMK A01 T00650003  RH  064%=      5-min Rain = 0
KMD1 080733Z 24002KT 06/01 A2989 RMK A01 T00640005  RH  066%=      5-min Rain = 0
KMD1 080734Z 21002KT 06/01 A2989 RMK A01 T00640005  RH  066%=      5-min Rain = 0
KMD1 080735Z 23002KT 06/01 A2989 RMK A01 T00640006  RH  066%=      5-min Rain = 0
KMD1 080736Z 24002KT 06/01 A2989 RMK A01 T00640008  RH  068%=      5-min Rain = 0
KMD1 080737Z 24002KT 06/01 A2989 RMK A01 T00640009  RH  068%=      5-min Rain = 0
KMD1 080738Z 24002KT 06/01 A2989 RMK A01 T00640010  RH  068%=      5-min Rain = 0
KMD1 080739Z 25002KT 06/01 A2989 RMK A01 T00640012  RH  070%=      5-min Rain = 0
KMD1 080740Z 26002KT 06/01 A2989 RMK A01 T00630013  RH  070%=      5-min Rain = 0
KMD1 080741Z 26003KT 06/01 A2989 RMK A01 T00620008  RH  068%=      5-min Rain = 0
KMD1 080742Z 27003KT 06/01 A2989 RMK A01 T00610005  RH  067%=      5-min Rain = 0
KMD1 080743Z 26003KT 06/01 A2989 RMK A01 T00610006  RH  068%=      5-min Rain = 0
KMD1 080744Z 26003KT 06/01 A2989 RMK A01 T00620007  RH  068%=      5-min Rain = 0
KMD1 080745Z 27003KT 06/01 A2989 RMK A01 T00630007  RH  068%=      5-min Rain = 0
KMD1 080746Z 27003KT 06/01 A2989 RMK A01 T00630006  RH  067%=      5-min Rain = 0
KMD1 080747Z 28002KT 06/01 A2989 RMK A01 T00630006  RH  067%=      5-min Rain = 0
KMD1 080748Z 28002KT 06/01 A2989 RMK A01 T00640005  RH  066%=      5-min Rain = 0
KMD1 080749Z 29002KT 06/00 A2989 RMK A01 T00640004  RH  065%=      5-min Rain = 0
KMD1 080750Z 29002KT 06/00 A2989 RMK A01 T00640003  RH  065%=      5-min Rain = 0
KMD1 080751Z 29002KT 06/00 A2989 RMK A01 T00630003  RH  065%=      5-min Rain = 0
KMD1 080752Z 28002KT 06/00 A2989 RMK A01 T00640003  RH  065%=      5-min Rain = 0
KMD1 080753Z 27002KT 06/00 A2989 RMK A01 T00630002  RH  065%=      5-min Rain = 0
KMD1 080754Z 26002KT 06/00 A2989 RMK A01 T00630001  RH  065%=      5-min Rain = 0
KMD1 080755Z 25003KT 06/00 A2989 RMK A01 T00620001  RH  065%=      5-min Rain = 0
KMD1 080756Z 25003KT 06/00 A2989 RMK A01 T00630001  RH  065%=      5-min Rain = 0
KMD1 080757Z 26003KT 06/00 A2989 RMK A01 T00640001  RH  064%=      5-min Rain = 0
KMD1 080758Z 26003KT 06/00 A2989 RMK A01 T00640002  RH  064%=      5-min Rain = 0
KMD1 080759Z 27003KT 06/00 A2989 RMK A01 T00640001  RH  064%=      5-min Rain = 0
KMD1 080800Z 27002KT 07/M00 A2989 RMK A01 T00651001  RH  063%=      5-min Rain = 0
KMD1 080801Z 26002KT 07/M00 A2989 RMK A01 T00651001  RH  063%=      5-min Rain = 0
KMD1 080802Z 27001KT 07/M00 A2989 RMK A01 T00651001  RH  063%=      5-min Rain = 0
KMD1 080803Z 28002KT 06/M00 A2989 RMK A01 T00641002  RH  063%=      5-min Rain = 0
KMD1 080804Z 29003KT 06/M00 A2989 RMK A01 T00641002  RH  063%=      5-min Rain = 0
KMD1 080805Z 29002KT 06/M00 A2989 RMK A01 T00631002  RH  063%=      5-min Rain = 0
KMD1 080806Z 28002KT 06/M00 A2989 RMK A01 T00631002  RH  063%=      5-min Rain = 0
KMD1 080807Z 27002KT 06/M00 A2989 RMK A01 T00621002  RH  064%=      5-min Rain = 0
KMD1 080808Z 28003KT 06/M00 A2989 RMK A01 T00611001  RH  064%=      5-min Rain = 0
KMD1 080809Z 28002KT 06/00 A2989 RMK A01 T006100-0  RH  065%=      5-min Rain = 0
KMD1 080810Z 28002KT 06/M00 A2989 RMK A01 T00611001  RH  064%=      5-min Rain = 0
KMD1 080811Z 24001KT 06/M00 A2989 RMK A01 T00601003  RH  064%=      5-min Rain = 0
KMD1 080812Z 23001KT 06/M00 A2989 RMK A01 T00591004  RH  064%=      5-min Rain = 0
KMD1 080813Z 25001KT 06/M00 A2989 RMK A01 T00581003  RH  065%=      5-min Rain = 0
KMD1 080814Z 25000KT 06/00 A2989 RMK A01 T005800-0  RH  066%=      5-min Rain = 0
KMD1 080815Z 29002KT 06/00 A2989 RMK A01 T00580002  RH  067%=      5-min Rain = 0
KMD1 080816Z 27000KT 06/00 A2989 RMK A01 T00600003  RH  067%=      5-min Rain = 0
KMD1 080817Z 29001KT 06/00 A2989 RMK A01 T00600002  RH  066%=      5-min Rain = 0
KMD1 080818Z 30001KT 06/00 A2989 RMK A01 T00620000  RH  065%=      5-min Rain = 0
KMD1 080819Z 00000KT 06/M00 A2989 RMK A01 T00631001  RH  064%=      5-min Rain = 0
KMD1 080820Z 26000KT 06/M00 A2989 RMK A01 T00641003  RH  062%=      5-min Rain = 0
KMD1 080821Z 26001KT 06/M01 A2989 RMK A01 T00641005  RH  062%=      5-min Rain = 0
KMD1 080822Z 24001KT 06/M01 A2989 RMK A01 T00621006  RH  062%=      5-min Rain = 0
KMD1 080823Z 25001KT 06/M01 A2989 RMK A01 T00611006  RH  062%=      5-min Rain = 0
KMD1 080824Z 25001KT 06/M01 A2989 RMK A01 T00601006  RH  063%=      5-min Rain = 0
KMD1 080825Z 23001KT 06/M01 A2989 RMK A01 T00611005  RH  063%=      5-min Rain = 0
KMD1 080826Z 23001KT 06/M00 A2989 RMK A01 T00611004  RH  063%=      5-min Rain = 0
KMD1 080827Z 24002KT 06/M00 A2989 RMK A01 T00601004  RH  063%=      5-min Rain = 0
KMD1 080828Z 25002KT 06/M00 A2989 RMK A01 T00611003  RH  064%=      5-min Rain = 0
KMD1 080829Z 25001KT 06/M00 A2989 RMK A01 T00611001  RH  064%=      5-min Rain = 0
KMD1 080830Z 25001KT 06/M00 A2989 RMK A01 T00611001  RH  064%=      5-min Rain = 0
KMD1 080831Z 26001KT 06/00 A2989 RMK A01 T006100-0  RH  065%=      5-min Rain = 0
KMD1 080832Z 27001KT 06/00 A2988 RMK A01 T006100-0  RH  065%=      5-min Rain = 0
KMD1 080833Z 27001KT 06/M00 A2988 RMK A01 T00621001  RH  064%=      5-min Rain = 0
KMD1 080834Z 28001KT 06/M00 A2988 RMK A01 T00621001  RH  064%=      5-min Rain = 0
KMD1 080835Z 27001KT 06/M00 A2988 RMK A01 T00621003  RH  063%=      5-min Rain = 0
KMD1 080836Z 29002KT 06/M00 A2988 RMK A01 T00611003  RH  063%=      5-min Rain = 0
KMD1 080837Z 29002KT 06/M00 A2988 RMK A01 T00601003  RH  064%=      5-min Rain = 0
KMD1 080838Z 29002KT 06/M00 A2988 RMK A01 T00601003  RH  064%=      5-min Rain = 0
KMD1 080839Z 28001KT 06/M00 A2988 RMK A01 T00591003  RH  064%=      5-min Rain = 0
KMD1 080840Z 27001KT 06/M00 A2988 RMK A01 T00591003  RH  065%=      5-min Rain = 0
KMD1 080841Z 25001KT 06/M00 A2988 RMK A01 T00591002  RH  065%=      5-min Rain = 0
KMD1 080842Z 25001KT 06/M00 A2988 RMK A01 T00591001  RH  065%=      5-min Rain = 0
KMD1 080843Z 27001KT 06/M00 A2988 RMK A01 T00591002  RH  065%=      5-min Rain = 0
KMD1 080844Z 27001KT 06/M00 A2988 RMK A01 T00591001  RH  066%=      5-min Rain = 0
KMD1 080845Z 26002KT 06/00 A2988 RMK A01 T00590000  RH  066%=      5-min Rain = 0
KMD1 080846Z 26002KT 06/00 A2988 RMK A01 T00590002  RH  067%=      5-min Rain = 0
KMD1 080847Z 26002KT 06/00 A2988 RMK A01 T00600002  RH  067%=      5-min Rain = 0
KMD1 080848Z 26003KT 06/00 A2988 RMK A01 T00600001  RH  066%=      5-min Rain = 0
KMD1 080849Z 24002KT 06/00 A2988 RMK A01 T00600001  RH  066%=      5-min Rain = 0
KMD1 080850Z 24002KT 06/00 A2988 RMK A01 T00590001  RH  066%=      5-min Rain = 0
KMD1 080851Z 24002KT 06/00 A2987 RMK A01 T005900-0  RH  066%=      5-min Rain = 0
KMD1 080852Z 25002KT 06/00 A2987 RMK A01 T00580000  RH  066%=      5-min Rain = 0
KMD1 080853Z 25002KT 06/00 A2987 RMK A01 T005700-0  RH  066%=      5-min Rain = 0
KMD1 080854Z 25002KT 06/M00 A2987 RMK A01 T00571001  RH  066%=      5-min Rain = 0
KMD1 080855Z 26002KT 06/00 A2987 RMK A01 T00560001  RH  067%=      5-min Rain = 0
KMD1 080856Z 27002KT 06/00 A2987 RMK A01 T00560002  RH  068%=      5-min Rain = 0
KMD1 080857Z 26002KT 06/00 A2987 RMK A01 T00560002  RH  068%=      5-min Rain = 0
KMD1 080858Z 27002KT 06/00 A2987 RMK A01 T00550000  RH  068%=      5-min Rain = 0
KMD1 080859Z 27003KT 05/M00 A2987 RMK A01 T00541003  RH  067%=      5-min Rain = 0
KMD1 080900Z 28002KT 05/M00 A2987 RMK A01 T00531004  RH  067%=      5-min Rain = 0
KMD1 080901Z 27003KT 05/M00 A2987 RMK A01 T00531003  RH  067%=      5-min Rain = 0
KMD1 080902Z 27003KT 05/M00 A2987 RMK A01 T00531003  RH  067%=      5-min Rain = 0
KMD1 080903Z 27003KT 05/M00 A2987 RMK A01 T00531003  RH  067%=      5-min Rain = 0
KMD1 080904Z 27002KT 05/M00 A2987 RMK A01 T00531003  RH  067%=      5-min Rain = 0
KMD1 080905Z 28003KT 05/M00 A2987 RMK A01 T00531003  RH  067%=      5-min Rain = 0
KMD1 080906Z 29002KT 05/M00 A2987 RMK A01 T00541003  RH  067%=      5-min Rain = 0
KMD1 080907Z 29001KT 06/M00 A2987 RMK A01 T00561002  RH  067%=      5-min Rain = 0
KMD1 080908Z 32000KT 06/M00 A2987 RMK A01 T00561003  RH  066%=      5-min Rain = 0
KMD1 080909Z 34001KT 05/M01 A2987 RMK A01 T00541005  RH  066%=      5-min Rain = 0
KMD1 080910Z 32001KT 05/M01 A2987 RMK A01 T00531005  RH  066%=      5-min Rain = 0
KMD1 080911Z 30001KT 05/M01 A2987 RMK A01 T00521005  RH  067%=      5-min Rain = 0
KMD1 080912Z 00000KT 05/M01 A2987 RMK A01 T00521005  RH  067%=      5-min Rain = 0
KMD1 080913Z 28000KT 05/M01 A2987 RMK A01 T00511005  RH  067%=      5-min Rain = 0
KMD1 080914Z 29001KT 05/M01 A2987 RMK A01 T00511005  RH  067%=      5-min Rain = 0
KMD1 080915Z 27001KT 05/M01 A2987 RMK A01 T00511005  RH  067%=      5-min Rain = 0
KMD1 080916Z 27001KT 05/M01 A2987 RMK A01 T00511005  RH  067%=      5-min Rain = 0
KMD1 080917Z 27000KT 05/M00 A2987 RMK A01 T00511004  RH  067%=      5-min Rain = 0
KMD1 080918Z 00000KT 05/M01 A2987 RMK A01 T00501005  RH  067%=      5-min Rain = 0
KMD1 080919Z 26000KT 05/M01 A2987 RMK A01 T00501005  RH  067%=      5-min Rain = 0
KMD1 080920Z 32000KT 05/M01 A2987 RMK A01 T00511005  RH  067%=      5-min Rain = 0
KMD1 080921Z 32001KT 05/M01 A2987 RMK A01 T00511006  RH  067%=      5-min Rain = 0
KMD1 080922Z 31001KT 05/M01 A2987 RMK A01 T00521005  RH  067%=      5-min Rain = 0
KMD1 080923Z 30001KT 05/M00 A2987 RMK A01 T00531004  RH  066%=      5-min Rain = 0
KMD1 080924Z 29001KT 05/M01 A2987 RMK A01 T00531005  RH  066%=      5-min Rain = 0
KMD1 080925Z 29001KT 05/M01 A2987 RMK A01 T00531005  RH  066%=      5-min Rain = 0
KMD1 080926Z 29002KT 05/M01 A2987 RMK A01 T00531005  RH  066%=      5-min Rain = 0
KMD1 080927Z 29001KT 06/M00 A2987 RMK A01 T00551004  RH  066%=      5-min Rain = 0
KMD1 080928Z 30001KT 06/M01 A2987 RMK A01 T00561005  RH  065%=      5-min Rain = 0
KMD1 080929Z 30001KT 06/M01 A2987 RMK A01 T00571005  RH  065%=      5-min Rain = 0
KMD1 080930Z 31001KT 06/M00 A2987 RMK A01 T00581004  RH  064%=      5-min Rain = 0
KMD1 080931Z 31002KT 06/M01 A2987 RMK A01 T00591005  RH  064%=      5-min Rain = 0
KMD1 080932Z 33002KT 06/M00 A2987 RMK A01 T00591004  RH  064%=      5-min Rain = 0
KMD1 080933Z 32002KT 06/M00 A2987 RMK A01 T00581004  RH  064%=      5-min Rain = 0
KMD1 080934Z 33002KT 06/M01 A2987 RMK A01 T00581005  RH  064%=      5-min Rain = 0
KMD1 080935Z 33001KT 06/M01 A2987 RMK A01 T00571005  RH  064%=      5-min Rain = 0
KMD1 080936Z 34002KT 06/M01 A2987 RMK A01 T00571005  RH  064%=      5-min Rain = 0
KMD1 080937Z 34002KT 06/M00 A2987 RMK A01 T00581004  RH  065%=      5-min Rain = 0
KMD1 080938Z 34001KT 06/M00 A2987 RMK A01 T00621002  RH  064%=      5-min Rain = 0
KMD1 080939Z 33001KT 07/M00 A2987 RMK A01 T00651001  RH  063%=      5-min Rain = 0
KMD1 080940Z 34001KT 07/M00 A2987 RMK A01 T00661002  RH  062%=      5-min Rain = 0
KMD1 080941Z 33001KT 07/M00 A2987 RMK A01 T00661002  RH  062%=      5-min Rain = 0
KMD1 080942Z 32001KT 07/M00 A2987 RMK A01 T00681001  RH  061%=      5-min Rain = 0
KMD1 080943Z 32000KT 07/M00 A2987 RMK A01 T00691001  RH  061%=      5-min Rain = 0
KMD1 080944Z 01000KT 07/M00 A2987 RMK A01 T00681003  RH  061%=      5-min Rain = 0
KMD1 080945Z 00000KT 07/M00 A2987 RMK A01 T00651004  RH  061%=      5-min Rain = 0
KMD1 080946Z 00000KT 07/M00 A2987 RMK A01 T00651002  RH  062%=      5-min Rain = 0
KMD1 080947Z 02000KT 07/M00 A2987 RMK A01 T00661002  RH  062%=      5-min Rain = 0
KMD1 080948Z 03000KT 07/M00 A2987 RMK A01 T00671001  RH  062%=      5-min Rain = 0
KMD1 080949Z 26000KT 07/M00 A2987 RMK A01 T00681001  RH  062%=      5-min Rain = 0
KMD1 080950Z 29000KT 07/M00 A2987 RMK A01 T00681001  RH  061%=      5-min Rain = 0
KMD1 080951Z 00000KT 07/M00 A2987 RMK A01 T00681001  RH  062%=      5-min Rain = 0
KMD1 080952Z 28000KT 07/00 A2987 RMK A01 T006900-0  RH  061%=      5-min Rain = 0
KMD1 080953Z 23000KT 07/00 A2987 RMK A01 T00710000  RH  061%=      5-min Rain = 0
KMD1 080954Z 22000KT 07/00 A2987 RMK A01 T00720000  RH  060%=      5-min Rain = 0
KMD1 080955Z 00000KT 07/00 A2987 RMK A01 T00730001  RH  060%=      5-min Rain = 0
KMD1 080956Z 25000KT 07/00 A2987 RMK A01 T007400-0  RH  059%=      5-min Rain = 0
KMD1 080957Z 25000KT 07/M00 A2987 RMK A01 T00711002  RH  060%=      5-min Rain = 0
KMD1 080958Z 25001KT 07/M00 A2987 RMK A01 T00691002  RH  061%=      5-min Rain = 0
KMD1 080959Z 26001KT 07/M00 A2987 RMK A01 T00681002  RH  061%=      5-min Rain = 0
KMD1 081000Z 25001KT 07/M00 A2987 RMK A01 T00671001  RH  062%=      5-min Rain = 0
KMD1 081001Z 25002KT 07/M00 A2987 RMK A01 T00661002  RH  062%=      5-min Rain = 0
KMD1 081002Z 23002KT 07/M00 A2987 RMK A01 T00651003  RH  062%=      5-min Rain = 0
KMD1 081003Z 23002KT 06/M00 A2987 RMK A01 T00641003  RH  062%=      5-min Rain = 0
KMD1 081004Z 24002KT 06/M01 A2987 RMK A01 T00631005  RH  062%=      5-min Rain = 0
KMD1 081005Z 24003KT 06/M00 A2987 RMK A01 T00621004  RH  063%=      5-min Rain = 0
KMD1 081006Z 24003KT 06/M00 A2987 RMK A01 T00611003  RH  063%=      5-min Rain = 0
KMD1 081007Z 24003KT 06/M00 A2987 RMK A01 T00601002  RH  064%=      5-min Rain = 0
KMD1 081008Z 24003KT 06/00 A2987 RMK A01 T00600002  RH  066%=      5-min Rain = 0
KMD1 081009Z 24003KT 06/01 A2987 RMK A01 T00600005  RH  068%=      5-min Rain = 0
KMD1 081010Z 24003KT 06/01 A2987 RMK A01 T00580005  RH  069%=      5-min Rain = 0
KMD1 081011Z 24003KT 06/01 A2987 RMK A01 T00570005  RH  069%=      5-min Rain = 0
KMD1 081012Z 23002KT 06/00 A2987 RMK A01 T00550004  RH  070%=      5-min Rain = 0
KMD1 081013Z 22002KT 05/00 A2987 RMK A01 T00540004  RH  070%=      5-min Rain = 0
KMD1 081014Z 22003KT 05/00 A2987 RMK A01 T00530004  RH  071%=      5-min Rain = 0
KMD1 081015Z 23002KT 05/00 A2987 RMK A01 T00510004  RH  072%=      5-min Rain = 0
KMD1 081016Z 23002KT 05/01 A2987 RMK A01 T00510006  RH  073%=      5-min Rain = 0
KMD1 081017Z 23002KT 05/01 A2986 RMK A01 T00500007  RH  074%=      5-min Rain = 0
KMD1 081018Z 24002KT 05/01 A2986 RMK A01 T00500006  RH  074%=      5-min Rain = 0
KMD1 081019Z 25002KT 05/01 A2986 RMK A01 T00500005  RH  073%=      5-min Rain = 0
KMD1 081020Z 26002KT 05/00 A2986 RMK A01 T00490004  RH  072%=      5-min Rain = 0
KMD1 081021Z 26001KT 05/00 A2986 RMK A01 T00480000  RH  071%=      5-min Rain = 0
KMD1 081022Z 26002KT 05/M00 A2986 RMK A01 T00481001  RH  071%=      5-min Rain = 0
KMD1 081023Z 26002KT 05/M00 A2987 RMK A01 T00471001  RH  071%=      5-min Rain = 0
KMD1 081024Z 26002KT 05/M00 A2987 RMK A01 T00451001  RH  072%=      5-min Rain = 0
KMD1 081025Z 27002KT 04/M00 A2986 RMK A01 T00441001  RH  073%=      5-min Rain = 0
KMD1 081026Z 27002KT 04/M00 A2986 RMK A01 T00431001  RH  073%=      5-min Rain = 0
KMD1 081027Z 28002KT 04/M00 A2986 RMK A01 T00421001  RH  074%=      5-min Rain = 0
KMD1 081028Z 28002KT 04/00 A2986 RMK A01 T00420001  RH  074%=      5-min Rain = 0
KMD1 081029Z 29002KT 04/00 A2986 RMK A01 T00420003  RH  075%=      5-min Rain = 0
KMD1 081030Z 29002KT 04/01 A2986 RMK A01 T00420005  RH  077%=      5-min Rain = 0
KMD1 081031Z 29002KT 04/01 A2986 RMK A01 T00420008  RH  078%=      5-min Rain = 0
KMD1 081032Z 30002KT 04/01 A2986 RMK A01 T00420008  RH  079%=      5-min Rain = 0
KMD1 081033Z 29001KT 04/01 A2986 RMK A01 T00420008  RH  079%=      5-min Rain = 0
KMD1 081034Z 29001KT 04/01 A2986 RMK A01 T00410008  RH  079%=      5-min Rain = 0
KMD1 081035Z 32001KT 04/01 A2986 RMK A01 T00420010  RH  080%=      5-min Rain = 0
KMD1 081036Z 36001KT 04/01 A2986 RMK A01 T00430012  RH  080%=      5-min Rain = 0
KMD1 081037Z 00001KT 05/01 A2986 RMK A01 T00450011  RH  079%=      5-min Rain = 0
KMD1 081038Z 02001KT 05/01 A2986 RMK A01 T00460006  RH  075%=      5-min Rain = 0
KMD1 081039Z 01002KT 05/00 A2986 RMK A01 T00460002  RH  073%=      5-min Rain = 0
KMD1 081040Z 00002KT 05/00 A2987 RMK A01 T004500-0  RH  072%=      5-min Rain = 0
KMD1 081041Z 01001KT 05/M00 A2987 RMK A01 T00451001  RH  072%=      5-min Rain = 0
KMD1 081042Z 36001KT 04/M00 A2987 RMK A01 T00441001  RH  072%=      5-min Rain = 0
KMD1 081043Z 35001KT 04/M00 A2987 RMK A01 T00441001  RH  073%=      5-min Rain = 0
KMD1 081044Z 34001KT 04/M00 A2986 RMK A01 T00441001  RH  073%=      5-min Rain = 0
KMD1 081045Z 35001KT 04/M00 A2986 RMK A01 T00441001  RH  072%=      5-min Rain = 0
KMD1 081046Z 35001KT 04/M00 A2986 RMK A01 T00441002  RH  072%=      5-min Rain = 0
KMD1 081047Z 35001KT 04/M00 A2987 RMK A01 T00441002  RH  072%=      5-min Rain = 0
KMD1 081048Z 35002KT 04/M00 A2987 RMK A01 T00441002  RH  072%=      5-min Rain = 0
KMD1 081049Z 35002KT 05/M00 A2987 RMK A01 T00451002  RH  071%=      5-min Rain = 0
KMD1 081050Z 00002KT 05/M00 A2987 RMK A01 T00451002  RH  071%=      5-min Rain = 0
KMD1 081051Z 35002KT 05/M00 A2987 RMK A01 T00471001  RH  071%=      5-min Rain = 0
KMD1 081052Z 35002KT 05/00 A2987 RMK A01 T004900-0  RH  071%=      5-min Rain = 0
KMD1 081053Z 36002KT 05/00 A2987 RMK A01 T00520001  RH  070%=      5-min Rain = 0
KMD1 081054Z 35002KT 06/00 A2987 RMK A01 T00550001  RH  068%=      5-min Rain = 0
KMD1 081055Z 36002KT 06/00 A2987 RMK A01 T00560001  RH  067%=      5-min Rain = 0
KMD1 081056Z 01003KT 06/00 A2987 RMK A01 T00560000  RH  067%=      5-min Rain = 0
KMD1 081057Z 00003KT 06/00 A2987 RMK A01 T00580000  RH  066%=      5-min Rain = 0
KMD1 081058Z 01003KT 06/00 A2987 RMK A01 T006000-0  RH  065%=      5-min Rain = 0
KMD1 081059Z 01003KT 06/M00 A2987 RMK A01 T00601001  RH  065%=      5-min Rain = 0
KMD1 081100Z 01002KT 06/M00 A2987 RMK A01 T00601001  RH  065%=      5-min Rain = 0
KMD1 081101Z 01003KT 06/M00 A2987 RMK A01 T00611001  RH  064%=      5-min Rain = 0
KMD1 081102Z 01003KT 06/M00 A2987 RMK A01 T00601001  RH  065%=      5-min Rain = 0
KMD1 081103Z 35002KT 06/M00 A2987 RMK A01 T00601001  RH  065%=      5-min Rain = 0
KMD1 081104Z 16001KT 06/M00 A2987 RMK A01 T00591001  RH  065%=      5-min Rain = 0
KMD1 081105Z 19000KT 06/00 A2987 RMK A01 T00620000  RH  065%=      5-min Rain = 0
KMD1 081106Z 01000KT 06/M00 A2987 RMK A01 T00621001  RH  064%=      5-min Rain = 0
KMD1 081107Z 01000KT 06/M00 A2987 RMK A01 T00621001  RH  064%=      5-min Rain = 0
KMD1 081108Z 01000KT 06/M00 A2987 RMK A01 T00621001  RH  064%=      5-min Rain = 0
KMD1 081109Z 00001KT 06/M00 A2987 RMK A01 T00611001  RH  064%=      5-min Rain = 0
KMD1 081110Z 03000KT 06/00 A2987 RMK A01 T006200-0  RH  064%=      5-min Rain = 0
KMD1 081111Z 03000KT 06/00 A2987 RMK A01 T006300-0  RH  064%=      5-min Rain = 0
KMD1 081112Z 01001KT 06/M00 A2987 RMK A01 T00621001  RH  064%=      5-min Rain = 0
KMD1 081113Z 00001KT 06/M00 A2987 RMK A01 T00601002  RH  065%=      5-min Rain = 0
KMD1 081114Z 00000KT 06/M00 A2987 RMK A01 T00591001  RH  065%=      5-min Rain = 0
KMD1 081115Z 02001KT 06/M00 A2987 RMK A01 T00581001  RH  066%=      5-min Rain = 0
KMD1 081116Z 02001KT 06/M00 A2987 RMK A01 T00581001  RH  066%=      5-min Rain = 0
KMD1 081117Z 00001KT 06/00 A2987 RMK A01 T005700-0  RH  067%=      5-min Rain = 0
KMD1 081118Z 01002KT 06/00 A2987 RMK A01 T005700-0  RH  067%=      5-min Rain = 0
KMD1 081119Z 00002KT 06/M00 A2987 RMK A01 T00561001  RH  067%=      5-min Rain = 0
KMD1 081120Z 01001KT 06/M00 A2987 RMK A01 T00561001  RH  067%=      5-min Rain = 0
KMD1 081121Z 01002KT 06/M00 A2987 RMK A01 T00561001  RH  067%=      5-min Rain = 0
KMD1 081122Z 01003KT 06/M00 A2987 RMK A01 T00551002  RH  067%=      5-min Rain = 0
KMD1 081123Z 01003KT 05/M00 A2987 RMK A01 T00541002  RH  067%=      5-min Rain = 0
KMD1 081124Z 01003KT 05/M00 A2987 RMK A01 T00541002  RH  067%=      5-min Rain = 0
KMD1 081125Z 01003KT 05/M00 A2987 RMK A01 T00541001  RH  067%=      5-min Rain = 0
KMD1 081126Z 01003KT 06/M00 A2987 RMK A01 T00551001  RH  067%=      5-min Rain = 0
KMD1 081127Z 01003KT 06/M00 A2987 RMK A01 T00551001  RH  067%=      5-min Rain = 0
KMD1 081128Z 01003KT 06/M00 A2987 RMK A01 T00551001  RH  067%=      5-min Rain = 0
KMD1 081129Z 01003KT 06/M00 A2987 RMK A01 T00551001  RH  067%=      5-min Rain = 0
KMD1 081130Z 01004KT 06/M00 A2987 RMK A01 T00551001  RH  067%=      5-min Rain = 0
KMD1 081131Z 01003KT 06/M00 A2987 RMK A01 T00561001  RH  067%=      5-min Rain = 0
KMD1 081132Z 01004KT 06/M00 A2987 RMK A01 T00551001  RH  067%=      5-min Rain = 0
KMD1 081133Z 02004KT 06/M00 A2987 RMK A01 T00551001  RH  067%=      5-min Rain = 0
KMD1 081134Z 02003KT 06/M00 A2987 RMK A01 T00551001  RH  067%=      5-min Rain = 0
KMD1 081135Z 02003KT 06/00 A2987 RMK A01 T005500-0  RH  068%=      5-min Rain = 0
KMD1 081136Z 03003KT 05/00 A2987 RMK A01 T005400-0  RH  068%=      5-min Rain = 0
KMD1 081137Z 02003KT 05/00 A2987 RMK A01 T005400-0  RH  068%=      5-min Rain = 0
KMD1 081138Z 03002KT 05/M00 A2987 RMK A01 T00541001  RH  068%=      5-min Rain = 0
KMD1 081139Z 04002KT 05/M00 A2987 RMK A01 T00531001  RH  068%=      5-min Rain = 0
KMD1 081140Z 03002KT 05/M00 A2987 RMK A01 T00541001  RH  068%=      5-min Rain = 0
KMD1 081141Z 03002KT 06/M00 A2987 RMK A01 T00551001  RH  067%=      5-min Rain = 0
KMD1 081142Z 03002KT 06/M00 A2987 RMK A01 T00561001  RH  067%=      5-min Rain = 0
KMD1 081143Z 01002KT 06/M00 A2987 RMK A01 T00581001  RH  066%=      5-min Rain = 0
KMD1 081144Z 36003KT 06/M00 A2987 RMK A01 T00581001  RH  066%=      5-min Rain = 0
KMD1 081145Z 00003KT 06/M00 A2987 RMK A01 T00581001  RH  066%=      5-min Rain = 0
KMD1 081146Z 36003KT 06/00 A2987 RMK A01 T005800-0  RH  066%=      5-min Rain = 0
KMD1 081147Z 36002KT 06/00 A2987 RMK A01 T005800-0  RH  066%=      5-min Rain = 0
KMD1 081148Z 36002KT 06/M00 A2987 RMK A01 T00571001  RH  066%=      5-min Rain = 0
KMD1 081149Z 35002KT 06/M00 A2987 RMK A01 T00561001  RH  067%=      5-min Rain = 0
KMD1 081150Z 35002KT 06/M00 A2987 RMK A01 T00551001  RH  067%=      5-min Rain = 0
KMD1 081151Z 00002KT 05/00 A2987 RMK A01 T005300-0  RH  068%=      5-min Rain = 0
KMD1 081152Z 02001KT 05/00 A2987 RMK A01 T00510000  RH  070%=      5-min Rain = 0
KMD1 081153Z 36001KT 05/00 A2987 RMK A01 T00500001  RH  070%=      5-min Rain = 0
KMD1 081154Z 01001KT 05/00 A2987 RMK A01 T00500001  RH  071%=      5-min Rain = 0
KMD1 081155Z 00001KT 05/00 A2987 RMK A01 T00490000  RH  071%=      5-min Rain = 0
KMD1 081156Z 01001KT 05/00 A2987 RMK A01 T00490000  RH  071%=      5-min Rain = 0
KMD1 081157Z 01002KT 05/00 A2987 RMK A01 T00480001  RH  072%=      5-min Rain = 0
KMD1 081158Z 01002KT 05/00 A2987 RMK A01 T00460002  RH  073%=      5-min Rain = 0
KMD1 081159Z 36001KT 04/00 A2987 RMK A01 T00440002  RH  074%=      5-min Rain = 0
KMD1 081200Z 01003KT 04/00 A2987 RMK A01 T00420000  RH  074%=      5-min Rain = 0
KMD1 081201Z 01003KT 04/M00 A2987 RMK A01 T00401003  RH  074%=      5-min Rain = 0
KMD1 081202Z 00002KT 04/M00 A2987 RMK A01 T00391001  RH  075%=      5-min Rain = 0
KMD1 081203Z 36003KT 04/00 A2987 RMK A01 T00400001  RH  076%=      5-min Rain = 0
KMD1 081204Z 00004KT 04/00 A2987 RMK A01 T00400001  RH  076%=      5-min Rain = 0
KMD1 081205Z 35004KT 04/00 A2987 RMK A01 T00400002  RH  076%=      5-min Rain = 0
KMD1 081206Z 35004KT 04/00 A2987 RMK A01 T00400001  RH  076%=      5-min Rain = 0
KMD1 081207Z 36004KT 04/00 A2987 RMK A01 T00410002  RH  076%=      5-min Rain = 0
KMD1 081208Z 36004KT 04/00 A2987 RMK A01 T00410002  RH  076%=      5-min Rain = 0
KMD1 081209Z 35004KT 04/00 A2987 RMK A01 T00420002  RH  075%=      5-min Rain = 0
KMD1 081210Z 35004KT 04/00 A2987 RMK A01 T00420001  RH  075%=      5-min Rain = 0
KMD1 081211Z 36004KT 04/00 A2987 RMK A01 T00430000  RH  074%=      5-min Rain = 0
KMD1 081212Z 01003KT 04/00 A2987 RMK A01 T004400-0  RH  073%=      5-min Rain = 0
KMD1 081213Z 02003KT 05/00 A2987 RMK A01 T004600-0  RH  072%=      5-min Rain = 0
KMD1 081214Z 02003KT 05/M00 A2987 RMK A01 T00481001  RH  071%=      5-min Rain = 0
KMD1 081215Z 01004KT 05/M00 A2987 RMK A01 T00481001  RH  070%=      5-min Rain = 0
KMD1 081216Z 01003KT 05/M00 A2987 RMK A01 T00481001  RH  071%=      5-min Rain = 0
KMD1 081217Z 01003KT 05/M00 A2987 RMK A01 T00481001  RH  070%=      5-min Rain = 0
KMD1 081218Z 02003KT 05/M00 A2987 RMK A01 T00491001  RH  070%=      5-min Rain = 0
KMD1 081219Z 03002KT 05/00 A2987 RMK A01 T005100-0  RH  069%=      5-min Rain = 0
KMD1 081220Z 02002KT 05/00 A2987 RMK A01 T005200-0  RH  069%=      5-min Rain = 0
KMD1 081221Z 02002KT 05/M00 A2987 RMK A01 T00521001  RH  069%=      5-min Rain = 0
KMD1 081222Z 02003KT 05/M00 A2987 RMK A01 T00511001  RH  069%=      5-min Rain = 0
KMD1 081223Z 02004KT 05/M00 A2987 RMK A01 T00501001  RH  069%=      5-min Rain = 0
KMD1 081224Z 03004KT 05/M00 A2987 RMK A01 T00491001  RH  070%=      5-min Rain = 0
KMD1 081225Z 04004KT 05/00 A2987 RMK A01 T00480000  RH  071%=      5-min Rain = 0
KMD1 081226Z 03003KT 05/00 A2987 RMK A01 T004600-0  RH  072%=      5-min Rain = 0
KMD1 081227Z 04003KT 05/M00 A2987 RMK A01 T00471001  RH  071%=      5-min Rain = 0
KMD1 081228Z 04003KT 05/00 A2987 RMK A01 T005100-0  RH  070%=      5-min Rain = 0
KMD1 081229Z 05002KT 05/M00 A2987 RMK A01 T00531001  RH  068%=      5-min Rain = 0
KMD1 081230Z 05002KT 06/M00 A2987 RMK A01 T00551001  RH  067%=      5-min Rain = 0
KMD1 081231Z 05002KT 06/M00 A2987 RMK A01 T00551001  RH  067%=      5-min Rain = 0
KMD1 081232Z 05002KT 06/M00 A2987 RMK A01 T00561001  RH  067%=      5-min Rain = 0
KMD1 081233Z 04003KT 06/M00 A2987 RMK A01 T00571001  RH  066%=      5-min Rain = 0
KMD1 081234Z 03003KT 06/M00 A2987 RMK A01 T00571001  RH  066%=      5-min Rain = 0
KMD1 081235Z 04003KT 06/M00 A2987 RMK A01 T00581001  RH  066%=      5-min Rain = 0
KMD1 081236Z 04004KT 06/00 A2987 RMK A01 T005800-0  RH  066%=      5-min Rain = 0
KMD1 081237Z 03002KT 06/00 A2987 RMK A01 T00580001  RH  066%=      5-min Rain = 0
KMD1 081238Z 03003KT 06/M00 A2987 RMK A01 T00581001  RH  066%=      5-min Rain = 0
KMD1 081239Z 02003KT 06/M00 A2988 RMK A01 T00571001  RH  066%=      5-min Rain = 0
KMD1 081240Z 03003KT 06/00 A2988 RMK A01 T005700-0  RH  067%=      5-min Rain = 0
KMD1 081241Z 03003KT 06/00 A2987 RMK A01 T00560000  RH  067%=      5-min Rain = 0
KMD1 081242Z 03003KT 06/00 A2988 RMK A01 T00560001  RH  068%=      5-min Rain = 0
KMD1 081243Z 03004KT 06/00 A2987 RMK A01 T00560002  RH  068%=      5-min Rain = 0
KMD1 081244Z 03003KT 06/00 A2988 RMK A01 T00550003  RH  069%=      5-min Rain = 0
KMD1 081245Z 04004KT 06/00 A2988 RMK A01 T00550003  RH  069%=      5-min Rain = 0
KMD1 081246Z 04004KT 06/00 A2987 RMK A01 T00550003  RH  069%=      5-min Rain = 0
KMD1 081247Z 04004KT 05/00 A2987 RMK A01 T00540002  RH  069%=      5-min Rain = 0
KMD1 081248Z 05004KT 05/00 A2987 RMK A01 T00540002  RH  069%=      5-min Rain = 0
KMD1 081249Z 05004KT 06/00 A2987 RMK A01 T00550001  RH  068%=      5-min Rain = 0
KMD1 081250Z 06004KT 06/00 A2987 RMK A01 T00550001  RH  068%=      5-min Rain = 0
KMD1 081251Z 06005KT 06/00 A2987 RMK A01 T00560001  RH  068%=      5-min Rain = 0
KMD1 081252Z 05004KT 06/00 A2987 RMK A01 T00570002  RH  068%=      5-min Rain = 0
KMD1 081253Z 04004KT 06/00 A2988 RMK A01 T00590003  RH  067%=      5-min Rain = 0
KMD1 081254Z 03003KT 06/00 A2988 RMK A01 T00600003  RH  067%=      5-min Rain = 0
KMD1 081255Z 03004KT 06/01 A2988 RMK A01 T00620005  RH  067%=      5-min Rain = 0
KMD1 081256Z 03004KT 07/01 A2988 RMK A01 T00650007  RH  067%=      5-min Rain = 0
KMD1 081257Z 04003KT 07/01 A2988 RMK A01 T00680008  RH  066%=      5-min Rain = 0
KMD1 081258Z 02003KT 07/01 A2988 RMK A01 T00720011  RH  065%=      5-min Rain = 0
KMD1 081259Z 03004KT 08/01 A2988 RMK A01 T00780013  RH  063%=      5-min Rain = 0
KMD1 081300Z 04003KT 08/01 A2988 RMK A01 T00830014  RH  062%=      5-min Rain = 0
KMD1 081301Z 04003KT 09/02 A2988 RMK A01 T00870015  RH  060%=      5-min Rain = 0
KMD1 081302Z 04003KT 09/02 A2988 RMK A01 T00900015  RH  059%=      5-min Rain = 0
KMD1 081303Z 03004KT 09/02 A2988 RMK A01 T00910015  RH  059%=      5-min Rain = 0
KMD1 081304Z 02004KT 09/01 A2988 RMK A01 T00900013  RH  059%=      5-min Rain = 0
KMD1 081305Z 02004KT 09/01 A2988 RMK A01 T00880010  RH  058%=      5-min Rain = 0
KMD1 081306Z 02003KT 09/01 A2988 RMK A01 T00860009  RH  058%=      5-min Rain = 0
KMD1 081307Z 03003KT 08/01 A2988 RMK A01 T00830008  RH  059%=      5-min Rain = 0
KMD1 081308Z 02003KT 08/01 A2988 RMK A01 T00820010  RH  060%=      5-min Rain = 0
KMD1 081309Z 02002KT 08/01 A2988 RMK A01 T00820011  RH  061%=      5-min Rain = 0
KMD1 081310Z 02002KT 08/01 A2988 RMK A01 T00820012  RH  061%=      5-min Rain = 0
KMD1 081311Z 02003KT 08/01 A2988 RMK A01 T00830012  RH  061%=      5-min Rain = 0
KMD1 081312Z 03003KT 08/01 A2988 RMK A01 T00830011  RH  061%=      5-min Rain = 0
KMD1 081313Z 04002KT 08/01 A2988 RMK A01 T00830013  RH  061%=      5-min Rain = 0
KMD1 081314Z 04003KT 09/02 A2988 RMK A01 T00860015  RH  061%=      5-min Rain = 0
KMD1 081315Z 04004KT 09/02 A2988 RMK A01 T00890017  RH  060%=      5-min Rain = 0
KMD1 081316Z 04003KT 09/02 A2988 RMK A01 T00920019  RH  060%=      5-min Rain = 0
KMD1 081317Z 03002KT 10/02 A2988 RMK A01 T00950020  RH  060%=      5-min Rain = 0
KMD1 081318Z 04002KT 10/02 A2988 RMK A01 T00970023  RH  060%=      5-min Rain = 0
KMD1 081319Z 05003KT 10/02 A2988 RMK A01 T01000024  RH  059%=      5-min Rain = 0
KMD1 081320Z 06003KT 10/02 A2988 RMK A01 T01010022  RH  058%=      5-min Rain = 0
KMD1 081321Z 04003KT 10/02 A2988 RMK A01 T01020023  RH  058%=      5-min Rain = 0
KMD1 081322Z 04003KT 10/02 A2988 RMK A01 T01020023  RH  058%=      5-min Rain = 0
KMD1 081323Z 03003KT 10/02 A2988 RMK A01 T01020022  RH  058%=      5-min Rain = 0
KMD1 081324Z 04003KT 10/02 A2988 RMK A01 T01010021  RH  058%=      5-min Rain = 0
KMD1 081325Z 03002KT 10/03 A2988 RMK A01 T01010025  RH  059%=      5-min Rain = 0
KMD1 081326Z 04001KT 10/03 A2988 RMK A01 T01020026  RH  059%=      5-min Rain = 0
KMD1 081327Z 04002KT 10/02 A2988 RMK A01 T01040024  RH  058%=      5-min Rain = 0
KMD1 081328Z 05003KT 11/02 A2988 RMK A01 T01050024  RH  057%=      5-min Rain = 0
KMD1 081329Z 05003KT 11/03 A2988 RMK A01 T01070027  RH  057%=      5-min Rain = 0
KMD1 081330Z 05003KT 11/03 A2988 RMK A01 T01100028  RH  057%=      5-min Rain = 0
KMD1 081331Z 05003KT 11/03 A2988 RMK A01 T01130029  RH  056%=      5-min Rain = 0
KMD1 081332Z 06002KT 12/03 A2988 RMK A01 T01160030  RH  056%=      5-min Rain = 0
KMD1 081333Z 05002KT 12/03 A2988 RMK A01 T01180029  RH  055%=      5-min Rain = 0
KMD1 081334Z 05003KT 12/03 A2988 RMK A01 T01180029  RH  054%=      5-min Rain = 0
KMD1 081335Z 05002KT 12/03 A2988 RMK A01 T01190030  RH  054%=      5-min Rain = 0
KMD1 081336Z 05002KT 12/03 A2988 RMK A01 T01200032  RH  055%=      5-min Rain = 0
KMD1 081337Z 06002KT 12/03 A2988 RMK A01 T01210033  RH  055%=      5-min Rain = 0
KMD1 081338Z 06002KT 12/03 A2988 RMK A01 T01220032  RH  054%=      5-min Rain = 0
KMD1 081339Z 08002KT 12/03 A2988 RMK A01 T01230034  RH  055%=      5-min Rain = 0
KMD1 081340Z 05002KT 13/04 A2988 RMK A01 T01250036  RH  055%=      5-min Rain = 0
KMD1 081341Z 08002KT 13/04 A2988 RMK A01 T01250035  RH  054%=      5-min Rain = 0
KMD1 081342Z 07002KT 13/03 A2988 RMK A01 T01250034  RH  054%=      5-min Rain = 0
KMD1 081343Z 07002KT 13/04 A2988 RMK A01 T01250035  RH  054%=      5-min Rain = 0
KMD1 081344Z 08002KT 13/04 A2988 RMK A01 T01260036  RH  054%=      5-min Rain = 0
KMD1 081345Z 08002KT 13/04 A2988 RMK A01 T01270037  RH  054%=      5-min Rain = 0
KMD1 081346Z 07002KT 13/04 A2988 RMK A01 T01270036  RH  054%=      5-min Rain = 0
KMD1 081347Z 09002KT 13/04 A2988 RMK A01 T01290037  RH  054%=      5-min Rain = 0
KMD1 081348Z 07002KT 13/04 A2988 RMK A01 T01300038  RH  054%=      5-min Rain = 0
KMD1 081349Z 07003KT 13/04 A2988 RMK A01 T01300038  RH  054%=      5-min Rain = 0
KMD1 081350Z 07002KT 13/04 A2988 RMK A01 T01320041  RH  054%=      5-min Rain = 0
KMD1 081351Z 07003KT 13/04 A2988 RMK A01 T01330041  RH  054%=      5-min Rain = 0
KMD1 081352Z 07003KT 13/04 A2988 RMK A01 T01340042  RH  054%=      5-min Rain = 0
KMD1 081353Z 07002KT 14/04 A2988 RMK A01 T01350044  RH  054%=      5-min Rain = 0
KMD1 081354Z 07002KT 14/05 A2988 RMK A01 T01370045  RH  054%=      5-min Rain = 0
KMD1 081355Z 06003KT 14/05 A2988 RMK A01 T01390048  RH  054%=      5-min Rain = 0
KMD1 081356Z 07003KT 14/05 A2988 RMK A01 T01410051  RH  054%=      5-min Rain = 0
KMD1 081357Z 07003KT 14/05 A2988 RMK A01 T01420051  RH  054%=      5-min Rain = 0
KMD1 081358Z 08003KT 15/05 A2988 RMK A01 T01450054  RH  054%=      5-min Rain = 0
KMD1 081359Z 07003KT 15/06 A2988 RMK A01 T01470056  RH  054%=      5-min Rain = 0
KMD1 081400Z 06003KT 15/06 A2988 RMK A01 T01480060  RH  056%=      5-min Rain = 0
KMD1 081401Z 06003KT 15/06 A2988 RMK A01 T01500061  RH  055%=      5-min Rain = 0
KMD1 081402Z 06003KT 15/06 A2988 RMK A01 T01520062  RH  055%=      5-min Rain = 0
KMD1 081403Z 06003KT 15/06 A2988 RMK A01 T01530064  RH  056%=      5-min Rain = 0
KMD1 081404Z 08004KT 15/07 A2988 RMK A01 T01530070  RH  058%=      5-min Rain = 0
KMD1 081405Z 07003KT 16/08 A2988 RMK A01 T01550077  RH  060%=      5-min Rain = 0
KMD1 081406Z 08003KT 16/08 A2988 RMK A01 T01560080  RH  060%=      5-min Rain = 0
KMD1 081407Z 08003KT 16/08 A2988 RMK A01 T01580082  RH  060%=      5-min Rain = 0
KMD1 081408Z 09003KT 16/09 A2988 RMK A01 T01610088  RH  062%=      5-min Rain = 0
KMD1 081409Z 08003KT 16/09 A2988 RMK A01 T01630086  RH  060%=      5-min Rain = 0
KMD1 081410Z 08003KT 16/08 A2988 RMK A01 T01640084  RH  059%=      5-min Rain = 0
KMD1 081411Z 08003KT 16/08 A2988 RMK A01 T01640084  RH  059%=      5-min Rain = 0
KMD1 081412Z 09003KT 17/09 A2988 RMK A01 T01650085  RH  059%=      5-min Rain = 0
KMD1 081413Z 09003KT 16/09 A2988 RMK A01 T01640085  RH  059%=      5-min Rain = 0
KMD1 081414Z 09003KT 16/09 A2988 RMK A01 T01640087  RH  060%=      5-min Rain = 0
KMD1 081415Z 09003KT 16/09 A2988 RMK A01 T01640089  RH  061%=      5-min Rain = 0
KMD1 081416Z 08002KT 17/09 A2988 RMK A01 T01660089  RH  061%=      5-min Rain = 0
KMD1 081417Z 07001KT 17/09 A2988 RMK A01 T01660093  RH  062%=      5-min Rain = 0
KMD1 081418Z 06001KT 17/10 A2988 RMK A01 T01680095  RH  062%=      5-min Rain = 0
KMD1 081419Z 06001KT 17/10 A2988 RMK A01 T01690096  RH  062%=      5-min Rain = 0
KMD1 081420Z 05001KT 17/10 A2988 RMK A01 T01710100  RH  063%=      5-min Rain = 0
KMD1 081421Z 02002KT 17/10 A2988 RMK A01 T01720099  RH  062%=      5-min Rain = 0
KMD1 081422Z 01001KT 17/10 A2988 RMK A01 T01730100  RH  062%=      5-min Rain = 0
KMD1 081423Z 34001KT 17/10 A2988 RMK A01 T01740103  RH  063%=      5-min Rain = 0
KMD1 081424Z 03000KT 18/11 A2988 RMK A01 T01750105  RH  064%=      5-min Rain = 0
KMD1 081425Z 29001KT 18/11 A2988 RMK A01 T01770108  RH  064%=      5-min Rain = 0
KMD1 081426Z 35000KT 18/11 A2988 RMK A01 T01790113  RH  065%=      5-min Rain = 0
KMD1 081427Z 26000KT 18/11 A2988 RMK A01 T01810113  RH  064%=      5-min Rain = 0
KMD1 081428Z 30001KT 18/11 A2988 RMK A01 T01820113  RH  064%=      5-min Rain = 0
KMD1 081429Z 07001KT 18/12 A2988 RMK A01 T01830115  RH  064%=      5-min Rain = 0
KMD1 081430Z 04001KT 18/12 A2988 RMK A01 T01840116  RH  064%=      5-min Rain = 0
KMD1 081431Z 20002KT 19/12 A2988 RMK A01 T01860120  RH  065%=      5-min Rain = 0
KMD1 081432Z 18002KT 19/12 A2988 RMK A01 T01880122  RH  065%=      5-min Rain = 0
KMD1 081433Z 24000KT 19/12 A2988 RMK A01 T01890122  RH  065%=      5-min Rain = 0
KMD1 081434Z 25001KT 19/12 A2988 RMK A01 T01900122  RH  065%=      5-min Rain = 0
KMD1 081435Z 21001KT 19/12 A2988 RMK A01 T01910123  RH  065%=      5-min Rain = 0
KMD1 081436Z 21001KT 19/13 A2988 RMK A01 T01920127  RH  066%=      5-min Rain = 0
KMD1 081437Z 18001KT 19/13 A2988 RMK A01 T01930128  RH  066%=      5-min Rain = 0
KMD1 081438Z 19001KT 20/13 A2988 RMK A01 T01950130  RH  066%=      5-min Rain = 0
KMD1 081439Z 18002KT 20/13 A2988 RMK A01 T01960134  RH  067%=      5-min Rain = 0
KMD1 081440Z 16001KT 20/13 A2988 RMK A01 T01980134  RH  067%=      5-min Rain = 0
KMD1 081441Z 15005KT 20/14 A2988 RMK A01 T01990138  RH  068%=      5-min Rain = 0
KMD1 081442Z 18005KT 20/14 A2988 RMK A01 T02020143  RH  069%=      5-min Rain = 0
KMD1 081443Z 18004KT 20/14 A2988 RMK A01 T02040144  RH  068%=      5-min Rain = 0
KMD1 081444Z 19005KT 21/15 A2988 RMK A01 T02060147  RH  069%=      5-min Rain = 0
KMD1 081445Z 19004KT 21/15 A2988 RMK A01 T02080150  RH  069%=      5-min Rain = 0
KMD1 081446Z 18003KT 21/15 A2988 RMK A01 T02100150  RH  068%=      5-min Rain = 0
KMD1 081447Z 27003KT 21/15 A2988 RMK A01 T02120147  RH  066%=      5-min Rain = 0
KMD1 081448Z 28005KT 21/15 A2988 RMK A01 T02130145  RH  065%=      5-min Rain = 0
KMD1 081449Z 28003KT 21/15 A2988 RMK A01 T02130146  RH  066%=      5-min Rain = 0
KMD1 081450Z 29004KT 21/15 A2988 RMK A01 T02120145  RH  066%=      5-min Rain = 0
KMD1 081451Z 26004KT 21/15 A2988 RMK A01 T02110147  RH  066%=      5-min Rain = 0
KMD1 081452Z 24002KT 21/15 A2988 RMK A01 T02110146  RH  067%=      5-min Rain = 0
KMD1 081453Z 26002KT 21/15 A2988 RMK A01 T02110150  RH  068%=      5-min Rain = 0
KMD1 081454Z 26003KT 21/15 A2988 RMK A01 T02120152  RH  068%=      5-min Rain = 0
KMD1 081455Z 24003KT 21/15 A2988 RMK A01 T02130153  RH  069%=      5-min Rain = 0
KMD1 081456Z 25001KT 22/15 A2988 RMK A01 T02150153  RH  068%=      5-min Rain = 0
KMD1 081457Z 21003KT 22/16 A2988 RMK A01 T02170155  RH  068%=      5-min Rain = 0
KMD1 081458Z 21007KT 22/16 A2988 RMK A01 T02180155  RH  068%=      5-min Rain = 0
KMD1 081459Z 19005KT 22/16 A2988 RMK A01 T02200158  RH  068%=      5-min Rain = 0
KMD1 081500Z 23004KT 22/16 A2988 RMK A01 T02220159  RH  067%=      5-min Rain = 0
KMD1 081501Z 21005KT 22/16 A2988 RMK A01 T02240160  RH  067%=      5-min Rain = 0
KMD1 081502Z 21003KT 23/16 A2988 RMK A01 T02260160  RH  066%=      5-min Rain = 0
KMD1 081503Z 18003KT 23/16 A2988 RMK A01 T02270158  RH  065%=      5-min Rain = 0
KMD1 081504Z 20005KT 23/16 A2988 RMK A01 T02270158  RH  065%=      5-min Rain = 0
KMD1 081505Z 20005KT 23/16 A2988 RMK A01 T02270160  RH  066%=      5-min Rain = 0
KMD1 081506Z 17008KT 23/16 A2988 RMK A01 T02280160  RH  065%=      5-min Rain = 0
KMD1 081507Z 19008KT 23/16 A2988 RMK A01 T02280158  RH  065%=      5-min Rain = 0
KMD1 081508Z 20011KT 23/16 A2988 RMK A01 T02270159  RH  066%=      5-min Rain = 0
KMD1 081509Z 19011KT 23/16 A2988 RMK A01 T02260159  RH  066%=      5-min Rain = 0
KMD1 081510Z 24008KT 23/16 A2988 RMK A01 T02260160  RH  066%=      5-min Rain = 0
KMD1 081511Z 23011KT 23/16 A2988 RMK A01 T02270159  RH  066%=      5-min Rain = 0
KMD1 081512Z 23011KT 23/16 A2988 RMK A01 T02290159  RH  065%=      5-min Rain = 0
KMD1 081513Z 22008KT 23/16 A2988 RMK A01 T02290158  RH  064%=      5-min Rain = 0
KMD1 081514Z 21011KT 23/16 A2988 RMK A01 T02290159  RH  065%=      5-min Rain = 0
KMD1 081515Z 23010KT 23/16 A2988 RMK A01 T02300159  RH  064%=      5-min Rain = 0
KMD1 081516Z 23010G15KT 23/16 A2988 RMK A01 T02300159  RH  064%=      5-min Rain = 0
KMD1 081517Z 23013KT 23/16 A2988 RMK A01 T02310158  RH  063%=      5-min Rain = 0
KMD1 081518Z 23010KT 23/16 A2988 RMK A01 T02310158  RH  063%=      5-min Rain = 0
KMD1 081519Z 22012KT 23/16 A2988 RMK A01 T02320159  RH  063%=      5-min Rain = 0
KMD1 081520Z 22013KT 23/16 A2988 RMK A01 T02320159  RH  064%=      5-min Rain = 0
KMD1 081521Z 22012KT 23/16 A2988 RMK A01 T02330158  RH  063%=      5-min Rain = 0
KMD1 081522Z 22009KT 23/16 A2988 RMK A01 T02330159  RH  063%=      5-min Rain = 0
KMD1 081523Z 21010KT 24/16 A2988 RMK A01 T02350159  RH  062%=      5-min Rain = 0
KMD1 081524Z 22012KT 24/16 A2988 RMK A01 T02360160  RH  062%=      5-min Rain = 0
KMD1 081525Z 22011G16KT 24/16 A2988 RMK A01 T02370159  RH  061%=      5-min Rain = 0
KMD1 081526Z 22011KT 24/16 A2988 RMK A01 T02360160  RH  062%=      5-min Rain = 0
KMD1 081527Z 22012KT 24/16 A2988 RMK A01 T02380160  RH  062%=      5-min Rain = 0
KMD1 081528Z 21013KT 24/16 A2988 RMK A01 T02390160  RH  062%=      5-min Rain = 0
KMD1 081529Z 21011G16KT 24/16 A2988 RMK A01 T02370160  RH  062%=      5-min Rain = 0
KMD1 081530Z 21011KT 24/16 A2988 RMK A01 T02380160  RH  062%=      5-min Rain = 0
KMD1 081531Z 21011KT 24/16 A2988 RMK A01 T02370160  RH  062%=      5-min Rain = 0
KMD1 081532Z 21010KT 24/16 A2988 RMK A01 T02370160  RH  062%=      5-min Rain = 0
KMD1 081533Z 22010KT 24/16 A2988 RMK A01 T02390161  RH  062%=      5-min Rain = 0
KMD1 081534Z 23011KT 24/16 A2988 RMK A01 T02400162  RH  061%=      5-min Rain = 0
KMD1 081535Z 22012KT 24/16 A2988 RMK A01 T02430163  RH  061%=      5-min Rain = 0
KMD1 081536Z 20009KT 25/16 A2988 RMK A01 T02460164  RH  060%=      5-min Rain = 0
KMD1 081537Z 20012KT 25/16 A2988 RMK A01 T02490163  RH  059%=      5-min Rain = 0
KMD1 081538Z 21011KT 25/16 A2988 RMK A01 T02480164  RH  060%=      5-min Rain = 0
KMD1 081539Z 20010KT 25/17 A2988 RMK A01 T02480165  RH  060%=      5-min Rain = 0
KMD1 081540Z 20010KT 25/17 A2988 RMK A01 T02500165  RH  059%=      5-min Rain = 0
KMD1 081541Z 21011KT 25/17 A2988 RMK A01 T02510165  RH  059%=      5-min Rain = 0
KMD1 081542Z 22015G20KT 25/16 A2987 RMK A01 T02530164  RH  058%=      5-min Rain = 0
KMD1 081543Z 22014G19KT 25/16 A2987 RMK A01 T02540161  RH  057%=      5-min Rain = 0
KMD1 081544Z 21017KT 25/16 A2987 RMK A01 T02520160  RH  057%=      5-min Rain = 0
KMD1 081545Z 21019KT 25/16 A2987 RMK A01 T02510158  RH  056%=      5-min Rain = 0
KMD1 081546Z 21015KT 25/16 A2987 RMK A01 T02490159  RH  057%=      5-min Rain = 0
KMD1 081547Z 21014G20KT 25/16 A2987 RMK A01 T02500160  RH  057%=      5-min Rain = 0
KMD1 081548Z 20016KT 25/16 A2987 RMK A01 T02520159  RH  056%=      5-min Rain = 0
KMD1 081549Z 20017KT 25/16 A2987 RMK A01 T02540158  RH  055%=      5-min Rain = 0
KMD1 081550Z 20016KT 25/16 A2987 RMK A01 T02520160  RH  057%=      5-min Rain = 0
KMD1 081551Z 19017KT 25/16 A2987 RMK A01 T02520159  RH  056%=      5-min Rain = 0
KMD1 081552Z 19014KT 25/16 A2987 RMK A01 T02520160  RH  056%=      5-min Rain = 0
KMD1 081553Z 21013G18KT 25/16 A2987 RMK A01 T02540161  RH  056%=      5-min Rain = 0
KMD1 081554Z 21017KT 26/16 A2987 RMK A01 T02560161  RH  056%=      5-min Rain = 0
KMD1 081555Z 21016KT 26/16 A2987 RMK A01 T02550160  RH  056%=      5-min Rain = 0
KMD1 081556Z 21017G22KT 26/16 A2987 RMK A01 T02550159  RH  055%=      5-min Rain = 0
KMD1 081557Z 19015KT 26/16 A2987 RMK A01 T02560158  RH  055%=      5-min Rain = 0
KMD1 081558Z 20017KT 26/16 A2987 RMK A01 T02570159  RH  055%=      5-min Rain = 0
KMD1 081559Z 20015G21KT 26/16 A2987 RMK A01 T02570160  RH  055%=      5-min Rain = 0
KMD1 081600Z 20016KT 26/16 A2987 RMK A01 T02580160  RH  055%=      5-min Rain = 0
KMD1 081601Z 22016KT 26/16 A2987 RMK A01 T02590159  RH  054%=      5-min Rain = 0
KMD1 081602Z 22018KT 26/16 A2987 RMK A01 T02570159  RH  055%=      5-min Rain = 0
KMD1 081603Z 21014G19KT 26/16 A2987 RMK A01 T02580159  RH  055%=      5-min Rain = 0
KMD1 081604Z 21014KT 26/16 A2987 RMK A01 T02580159  RH  054%=      5-min Rain = 0
KMD1 081605Z 21012KT 26/16 A2987 RMK A01 T02580157  RH  054%=      5-min Rain = 0
KMD1 081606Z 21017KT 26/16 A2987 RMK A01 T02610159  RH  053%=      5-min Rain = 0
KMD1 081607Z 20016KT 26/16 A2987 RMK A01 T02630157  RH  052%=      5-min Rain = 0
KMD1 081608Z 20014KT 26/16 A2987 RMK A01 T02620157  RH  052%=      5-min Rain = 0
KMD1 081609Z 20015KT 26/16 A2987 RMK A01 T02610159  RH  053%=      5-min Rain = 0
KMD1 081610Z 21014G19KT 26/16 A2987 RMK A01 T02620161  RH  054%=      5-min Rain = 0
KMD1 081611Z 20015KT 26/16 A2987 RMK A01 T02620160  RH  053%=      5-min Rain = 0
KMD1 081612Z 19013KT 26/16 A2987 RMK A01 T02620160  RH  054%=      5-min Rain = 0
KMD1 081613Z 19016KT 26/16 A2986 RMK A01 T02610160  RH  053%=      5-min Rain = 0
KMD1 081614Z 21016KT 26/16 A2986 RMK A01 T02620160  RH  053%=      5-min Rain = 0
KMD1 081615Z 19017KT 26/16 A2986 RMK A01 T02620159  RH  053%=      5-min Rain = 0
KMD1 081616Z 20018KT 26/16 A2986 RMK A01 T02610159  RH  053%=      5-min Rain = 0
KMD1 081617Z 21015G20KT 26/16 A2987 RMK A01 T02610160  RH  054%=      5-min Rain = 0
KMD1 081618Z 23013G19KT 26/16 A2987 RMK A01 T02630159  RH  053%=      5-min Rain = 0
KMD1 081619Z 22017KT 27/16 A2987 RMK A01 T02660158  RH  052%=      5-min Rain = 0
KMD1 081620Z 21015G20KT 27/16 A2987 RMK A01 T02650159  RH  052%=      5-min Rain = 0
KMD1 081621Z 22012KT 26/16 A2987 RMK A01 T02620160  RH  054%=      5-min Rain = 0
KMD1 081622Z 23012KT 26/16 A2987 RMK A01 T02630161  RH  053%=      5-min Rain = 0
KMD1 081623Z 21014G20KT 27/16 A2987 RMK A01 T02660162  RH  053%=      5-min Rain = 0
KMD1 081624Z 20015G20KT 27/16 A2986 RMK A01 T02670162  RH  053%=      5-min Rain = 0
KMD1 081625Z 20015KT 27/16 A2986 RMK A01 T02660160  RH  052%=      5-min Rain = 0
KMD1 081626Z 21015G20KT 26/16 A2986 RMK A01 T02640161  RH  053%=      5-min Rain = 0
KMD1 081627Z 21014KT 26/16 A2986 RMK A01 T02640161  RH  053%=      5-min Rain = 0
KMD1 081628Z 21016KT 27/16 A2986 RMK A01 T02660161  RH  052%=      5-min Rain = 0
KMD1 081629Z 21017KT 27/16 A2986 RMK A01 T02670161  RH  052%=      5-min Rain = 0
KMD1 081630Z 20014KT 27/16 A2986 RMK A01 T02670160  RH  052%=      5-min Rain = 0
KMD1 081631Z 20015KT 27/16 A2986 RMK A01 T02670159  RH  051%=      5-min Rain = 0
KMD1 081632Z 19016KT 27/16 A2986 RMK A01 T02680161  RH  052%=      5-min Rain = 0
KMD1 081633Z 19014KT 27/16 A2986 RMK A01 T02690162  RH  052%=      5-min Rain = 0
KMD1 081634Z 19014KT 27/16 A2986 RMK A01 T02680163  RH  052%=      5-min Rain = 0
KMD1 081635Z 20014KT 27/16 A2986 RMK A01 T02670162  RH  053%=      5-min Rain = 0
KMD1 081636Z 19017KT 27/16 A2986 RMK A01 T02660163  RH  053%=      5-min Rain = 0
KMD1 081637Z 21015KT 27/16 A2986 RMK A01 T02670162  RH  053%=      5-min Rain = 0
KMD1 081638Z 20013G18KT 27/16 A2986 RMK A01 T02700162  RH  052%=      5-min Rain = 0
KMD1 081639Z 20017KT 27/16 A2986 RMK A01 T02710161  RH  051%=      5-min Rain = 0
KMD1 081640Z 20015KT 27/16 A2986 RMK A01 T02710160  RH  051%=      5-min Rain = 0
KMD1 081641Z 20015KT 27/16 A2986 RMK A01 T02700163  RH  052%=      5-min Rain = 0
KMD1 081642Z 20015KT 27/16 A2986 RMK A01 T02700162  RH  051%=      5-min Rain = 0
KMD1 081643Z 21016KT 27/16 A2986 RMK A01 T02720160  RH  050%=      5-min Rain = 0
KMD1 081644Z 21013KT 27/16 A2986 RMK A01 T02720159  RH  050%=      5-min Rain = 0
KMD1 081645Z 20014G21KT 27/16 A2986 RMK A01 T02720158  RH  050%=      5-min Rain = 0
KMD1 081646Z 20015KT 27/16 A2986 RMK A01 T02730159  RH  050%=      5-min Rain = 0
KMD1 081647Z 20016KT 28/16 A2986 RMK A01 T02760157  RH  048%=      5-min Rain = 0
KMD1 081648Z 21013KT 28/16 A2986 RMK A01 T02770159  RH  048%=      5-min Rain = 0
KMD1 081649Z 21013G19KT 28/16 A2986 RMK A01 T02800156  RH  047%=      5-min Rain = 0
KMD1 081650Z 21014KT 28/15 A2986 RMK A01 T02800154  RH  046%=      5-min Rain = 0
KMD1 081651Z 20016KT 28/16 A2986 RMK A01 T02790155  RH  047%=      5-min Rain = 0
KMD1 081652Z 20014KT 28/15 A2985 RMK A01 T02790152  RH  046%=      5-min Rain = 0
KMD1 081653Z 21014KT 28/15 A2985 RMK A01 T02770152  RH  046%=      5-min Rain = 0
KMD1 081654Z 23016KT 28/16 A2985 RMK A01 T02790156  RH  047%=      5-min Rain = 0
KMD1 081655Z 24014KT 28/16 A2985 RMK A01 T02800160  RH  048%=      5-min Rain = 0
KMD1 081656Z 24014KT 28/16 A2985 RMK A01 T02780157  RH  048%=      5-min Rain = 0
KMD1 081657Z 23012KT 28/15 A2985 RMK A01 T02770154  RH  047%=      5-min Rain = 0
KMD1 081658Z 23012G20KT 28/16 A2985 RMK A01 T02780155  RH  047%=      5-min Rain = 0
KMD1 081659Z 20021KT 28/15 A2985 RMK A01 T02780152  RH  046%=      5-min Rain = 0
KMD1 081700Z 22016G21KT 28/15 A2985 RMK A01 T02780149  RH  045%=      5-min Rain = 0
KMD1 081701Z 21014KT 28/15 A2985 RMK A01 T02780151  RH  046%=      5-min Rain = 0
KMD1 081702Z 19017KT 28/15 A2985 RMK A01 T02780154  RH  047%=      5-min Rain = 0
KMD1 081703Z 20018KT 28/15 A2985 RMK A01 T02780154  RH  047%=      5-min Rain = 0
KMD1 081704Z 20016KT 28/15 A2985 RMK A01 T02780154  RH  047%=      5-min Rain = 0
KMD1 081705Z 20013KT 28/15 A2985 RMK A01 T02780150  RH  045%=      5-min Rain = 0
KMD1 081706Z 19013KT 28/15 A2985 RMK A01 T02780151  RH  046%=      5-min Rain = 0
KMD1 081707Z 20012KT 28/15 A2985 RMK A01 T02780151  RH  046%=      5-min Rain = 0
KMD1 081708Z 20015KT 28/15 A2985 RMK A01 T02800151  RH  045%=      5-min Rain = 0
KMD1 081709Z 21016KT 28/15 A2985 RMK A01 T02830151  RH  044%=      5-min Rain = 0
KMD1 081710Z 22013KT 28/15 A2985 RMK A01 T02840151  RH  044%=      5-min Rain = 0
KMD1 081711Z 22012KT 28/15 A2985 RMK A01 T02840154  RH  045%=      5-min Rain = 0
KMD1 081712Z 22015G20KT 28/15 A2984 RMK A01 T02840152  RH  045%=      5-min Rain = 0
KMD1 081713Z 22018KT 29/15 A2984 RMK A01 T02850147  RH  043%=      5-min Rain = 0
KMD1 081714Z 21017G22KT 29/15 A2984 RMK A01 T02850150  RH  044%=      5-min Rain = 0
KMD1 081715Z 20017KT 29/15 A2984 RMK A01 T02860151  RH  044%=      5-min Rain = 0
KMD1 081716Z 21017KT 29/15 A2984 RMK A01 T02870151  RH  044%=      5-min Rain = 0
KMD1 081717Z 21018KT 29/15 A2984 RMK A01 T02870150  RH  043%=      5-min Rain = 0
KMD1 081718Z 21017KT 28/15 A2984 RMK A01 T02840151  RH  044%=      5-min Rain = 0
KMD1 081719Z 23016KT 28/15 A2984 RMK A01 T02820151  RH  045%=      5-min Rain = 0
KMD1 081720Z 22016KT 28/15 A2984 RMK A01 T02820150  RH  045%=      5-min Rain = 0
KMD1 081721Z 21016G21KT 28/14 A2984 RMK A01 T02840142  RH  042%=      5-min Rain = 0
KMD1 081722Z 20016KT 28/15 A2984 RMK A01 T02840145  RH  043%=      5-min Rain = 0
KMD1 081723Z 22015KT 29/15 A2984 RMK A01 T02870145  RH  042%=      5-min Rain = 0
KMD1 081724Z 21013KT 29/14 A2984 RMK A01 T02900143  RH  041%=      5-min Rain = 0
KMD1 081725Z 21016G21KT 29/15 A2984 RMK A01 T02910148  RH  042%=      5-min Rain = 0
KMD1 081726Z 21015KT 29/15 A2984 RMK A01 T02920149  RH  042%=      5-min Rain = 0
KMD1 081727Z 22014KT 29/15 A2984 RMK A01 T02890149  RH  042%=      5-min Rain = 0
KMD1 081728Z 22016KT 29/15 A2983 RMK A01 T02890148  RH  042%=      5-min Rain = 0
KMD1 081729Z 22016G21KT 29/15 A2983 RMK A01 T02890148  RH  042%=      5-min Rain = 0
KMD1 081730Z 21011G16KT 29/15 A2983 RMK A01 T02900147  RH  042%=      5-min Rain = 0
KMD1 081731Z 22015KT 29/15 A2983 RMK A01 T02910146  RH  041%=      5-min Rain = 0
KMD1 081732Z 21017KT 29/14 A2983 RMK A01 T02920143  RH  040%=      5-min Rain = 0
KMD1 081733Z 22016KT 29/15 A2983 RMK A01 T02910145  RH  041%=      5-min Rain = 0
KMD1 081734Z 20014G19KT 29/15 A2983 RMK A01 T02910147  RH  041%=      5-min Rain = 0
KMD1 081735Z 20017KT 29/15 A2983 RMK A01 T02910146  RH  041%=      5-min Rain = 0
KMD1 081736Z 20017KT 29/14 A2983 RMK A01 T02910144  RH  041%=      5-min Rain = 0
KMD1 081737Z 22016KT 29/14 A2983 RMK A01 T02900141  RH  040%=      5-min Rain = 0
KMD1 081738Z 23015KT 29/14 A2983 RMK A01 T02930139  RH  039%=      5-min Rain = 0
KMD1 081739Z 24017KT 29/14 A2983 RMK A01 T02920138  RH  039%=      5-min Rain = 0
KMD1 081740Z 21015G21KT 29/14 A2983 RMK A01 T02910141  RH  040%=      5-min Rain = 0
KMD1 081741Z 21018KT 29/14 A2983 RMK A01 T02920138  RH  039%=      5-min Rain = 0
KMD1 081742Z 21018KT 29/14 A2983 RMK A01 T02930137  RH  038%=      5-min Rain = 0
KMD1 081743Z 21017KT 29/13 A2983 RMK A01 T02930132  RH  037%=      5-min Rain = 0
KMD1 081744Z 22017G24KT 30/13 A2983 RMK A01 T02950134  RH  037%=      5-min Rain = 0
KMD1 081745Z 21018KT 30/13 A2983 RMK A01 T02960130  RH  036%=      5-min Rain = 0
KMD1 081746Z 22018G24KT 29/13 A2983 RMK A01 T02940131  RH  037%=      5-min Rain = 0
KMD1 081747Z 21015KT 29/13 A2983 RMK A01 T02940134  RH  038%=      5-min Rain = 0
KMD1 081748Z 21015KT 30/14 A2983 RMK A01 T02960135  RH  037%=      5-min Rain = 0
KMD1 081749Z 22011G16KT 30/14 A2983 RMK A01 T02960135  RH  037%=      5-min Rain = 0
KMD1 081750Z 20008KT 30/13 A2983 RMK A01 T02980134  RH  037%=      5-min Rain = 0
KMD1 081751Z 23008KT 30/14 A2983 RMK A01 T02970138  RH  038%=      5-min Rain = 0
KMD1 081752Z 20007KT 30/14 A2983 RMK A01 T02960141  RH  039%=      5-min Rain = 0
KMD1 081753Z 20014KT 30/14 A2983 RMK A01 T03000144  RH  039%=      5-min Rain = 0
KMD1 081754Z 21017KT 30/14 A2983 RMK A01 T03010141  RH  038%=      5-min Rain = 0
KMD1 081755Z 21014KT 30/14 A2983 RMK A01 T03010140  RH  037%=      5-min Rain = 0
KMD1 081756Z 19014KT 30/14 A2983 RMK A01 T03010138  RH  037%=      5-min Rain = 0
KMD1 081757Z 19012KT 30/14 A2983 RMK A01 T02990135  RH  037%=      5-min Rain = 0
KMD1 081758Z 21010KT 30/14 A2983 RMK A01 T02970139  RH  038%=      5-min Rain = 0
KMD1 081759Z 21013KT 30/14 A2983 RMK A01 T03020139  RH  037%=      5-min Rain = 0
KMD1 081800Z 22012KT 30/13 A2983 RMK A01 T03040131  RH  035%=      5-min Rain = 0
KMD1 081801Z 24014G19KT 30/13 A2983 RMK A01 T03010131  RH  035%=      5-min Rain = 0
KMD1 081802Z 24016G21KT 30/13 A2982 RMK A01 T02980126  RH  035%=      5-min Rain = 0
KMD1 081803Z 23012KT 30/12 A2982 RMK A01 T02960120  RH  034%=      5-min Rain = 0
KMD1 081804Z 22011KT 29/12 A2982 RMK A01 T02940122  RH  035%=      5-min Rain = 0
KMD1 081805Z 21014G19KT 29/13 A2982 RMK A01 T02940127  RH  036%=      5-min Rain = 0
KMD1 081806Z 22012G17KT 30/13 A2982 RMK A01 T02970130  RH  036%=      5-min Rain = 0
KMD1 081807Z 22014KT 30/12 A2982 RMK A01 T03020124  RH  034%=      5-min Rain = 0
KMD1 081808Z 22016KT 30/12 A2982 RMK A01 T03020121  RH  033%=      5-min Rain = 0
KMD1 081809Z 22012G17KT 30/12 A2982 RMK A01 T03020123  RH  033%=      5-min Rain = 0
KMD1 081810Z 22013KT 30/12 A2982 RMK A01 T03040121  RH  033%=      5-min Rain = 0
KMD1 081811Z 22013G18KT 30/13 A2982 RMK A01 T03010126  RH  034%=      5-min Rain = 0
KMD1 081812Z 22012KT 30/13 A2982 RMK A01 T03020128  RH  034%=      5-min Rain = 0
KMD1 081813Z 23012G17KT 31/12 A2982 RMK A01 T03060120  RH  032%=      5-min Rain = 0
KMD1 081814Z 22010KT 31/13 A2982 RMK A01 T03100129  RH  033%=      5-min Rain = 0
KMD1 081815Z 24014G19KT 31/13 A2982 RMK A01 T03100125  RH  032%=      5-min Rain = 0
KMD1 081816Z 24013KT 31/13 A2982 RMK A01 T03090125  RH  033%=      5-min Rain = 0
KMD1 081817Z 24014KT 31/13 A2982 RMK A01 T03080127  RH  033%=      5-min Rain = 0
KMD1 081818Z 25015KT 31/12 A2982 RMK A01 T03060124  RH  033%=      5-min Rain = 0
KMD1 081819Z 24011KT 30/13 A2982 RMK A01 T03030125  RH  034%=      5-min Rain = 0
KMD1 081820Z 24009KT 30/13 A2982 RMK A01 T03000125  RH  034%=      5-min Rain = 0
KMD1 081821Z 25014KT 30/13 A2981 RMK A01 T03000125  RH  034%=      5-min Rain = 0
KMD1 081822Z 24013KT 30/12 A2981 RMK A01 T03020123  RH  033%=      5-min Rain = 0
KMD1 081823Z 22014G19KT 30/12 A2981 RMK A01 T03040124  RH  033%=      5-min Rain = 0
KMD1 081824Z 22012G17KT 31/13 A2981 RMK A01 T03060125  RH  033%=      5-min Rain = 0
KMD1 081825Z 24010KT 31/13 A2981 RMK A01 T03060126  RH  033%=      5-min Rain = 0
KMD1 081826Z 21010KT 31/13 A2981 RMK A01 T03050130  RH  034%=      5-min Rain = 0
KMD1 081827Z 24009KT 31/13 A2981 RMK A01 T03050129  RH  034%=      5-min Rain = 0
KMD1 081828Z 23010KT 31/13 A2981 RMK A01 T03060129  RH  034%=      5-min Rain = 0
KMD1 081829Z 22011KT 31/13 A2981 RMK A01 T03050129  RH  034%=      5-min Rain = 0
KMD1 081830Z 23008KT 30/13 A2981 RMK A01 T03040127  RH  034%=      5-min Rain = 0
KMD1 081831Z 24011KT 30/13 A2981 RMK A01 T03020126  RH  034%=      5-min Rain = 0
KMD1 081832Z 22017G22KT 30/13 A298 RMK A01 T03030127  RH  034%=      5-min Rain = 0
KMD1 081833Z 21016KT 31/13 A298 RMK A01 T03060127  RH  034%=      5-min Rain = 0
KMD1 081834Z 21010KT 31/13 A298 RMK A01 T03060128  RH  034%=      5-min Rain = 0
KMD1 081835Z 23013KT 31/13 A298 RMK A01 T03060128  RH  034%=      5-min Rain = 0
KMD1 081836Z 21012KT 31/13 A298 RMK A01 T03070127  RH  033%=      5-min Rain = 0
KMD1 081837Z 21011KT 31/13 A298 RMK A01 T03090126  RH  033%=      5-min Rain = 0
KMD1 081838Z 20011KT 31/13 A298 RMK A01 T03100132  RH  034%=      5-min Rain = 0
KMD1 081839Z 21014G19KT 31/14 A298 RMK A01 T03140136  RH  034%=      5-min Rain = 0
KMD1 081840Z 20015KT 32/13 A298 RMK A01 T03150132  RH  033%=      5-min Rain = 0
KMD1 081841Z 23012KT 31/13 A298 RMK A01 T03120127  RH  032%=      5-min Rain = 0
KMD1 081842Z 23011KT 31/13 A298 RMK A01 T03090127  RH  033%=      5-min Rain = 0
KMD1 081843Z 19011KT 31/13 A298 RMK A01 T03060132  RH  035%=      5-min Rain = 0
KMD1 081844Z 18008KT 30/13 A298 RMK A01 T03040131  RH  035%=      5-min Rain = 0
KMD1 081845Z 20009KT 30/13 A2979 RMK A01 T03010132  RH  035%=      5-min Rain = 0
KMD1 081846Z 21014G20KT 30/12 A2979 RMK A01 T03030124  RH  033%=      5-min Rain = 0
KMD1 081847Z 23016G21KT 31/11 A2979 RMK A01 T03090113  RH  030%=      5-min Rain = 0
KMD1 081848Z 23010KT 31/12 A2979 RMK A01 T03140120  RH  030%=      5-min Rain = 0
KMD1 081849Z 22014KT 32/12 A2979 RMK A01 T03200123  RH  030%=      5-min Rain = 0
KMD1 081850Z 24014KT 32/13 A2979 RMK A01 T03200127  RH  031%=      5-min Rain = 0
KMD1 081851Z 23013KT 32/13 A2979 RMK A01 T03150134  RH  033%=      5-min Rain = 0
KMD1 081852Z 19015KT 31/14 A2979 RMK A01 T03130139  RH  035%=      5-min Rain = 0
KMD1 081853Z 19014KT 31/14 A2979 RMK A01 T03120138  RH  035%=      5-min Rain = 0
KMD1 081854Z 21009KT 31/14 A2979 RMK A01 T03090135  RH  035%=      5-min Rain = 0
KMD1 081855Z 20011KT 31/13 A2979 RMK A01 T03080134  RH  035%=      5-min Rain = 0
KMD1 081856Z 19008KT 31/14 A2979 RMK A01 T03090135  RH  034%=      5-min Rain = 0
KMD1 081857Z 22012KT 31/14 A2979 RMK A01 T03130135  RH  034%=      5-min Rain = 0
KMD1 081858Z 23011KT 31/13 A2979 RMK A01 T03120127  RH  032%=      5-min Rain = 0
KMD1 081859Z 22012KT 31/13 A2979 RMK A01 T03090126  RH  033%=      5-min Rain = 0
KMD1 081900Z 21012G21KT 31/13 A2978 RMK A01 T03100125  RH  032%=      5-min Rain = 0
KMD1 081901Z 24013G18KT 32/11 A2979 RMK A01 T03170110  RH  028%=      5-min Rain = 0
KMD1 081902Z 24010KT 32/10 A2978 RMK A01 T03180098  RH  026%=      5-min Rain = 0
KMD1 081903Z 23012KT 32/10 A2978 RMK A01 T03150102  RH  027%=      5-min Rain = 0
KMD1 081904Z 23011KT 32/09 A2978 RMK A01 T03170093  RH  025%=      5-min Rain = 0
KMD1 081905Z 24007KT 32/10 A2978 RMK A01 T03170103  RH  027%=      5-min Rain = 0
KMD1 081906Z 23014G19KT 32/09 A2978 RMK A01 T03200090  RH  024%=      5-min Rain = 0
KMD1 081907Z 23015KT 32/07 A2978 RMK A01 T03210073  RH  021%=      5-min Rain = 0
KMD1 081908Z 23011KT 32/08 A2978 RMK A01 T03210075  RH  022%=      5-min Rain = 0
KMD1 081909Z 23009KT 32/08 A2978 RMK A01 T03220080  RH  022%=      5-min Rain = 0
KMD1 081910Z 23011KT 32/08 A2978 RMK A01 T03230081  RH  022%=      5-min Rain = 0
KMD1 081911Z 22012KT 33/08 A2978 RMK A01 T03250081  RH  022%=      5-min Rain = 0
KMD1 081912Z 24010KT 32/08 A2978 RMK A01 T03230077  RH  022%=      5-min Rain = 0
KMD1 081913Z 24007KT 32/08 A2978 RMK A01 T03200082  RH  023%=      5-min Rain = 0
KMD1 081914Z 21013KT 32/09 A2978 RMK A01 T03230087  RH  023%=      5-min Rain = 0
KMD1 081915Z 22013G18KT 33/09 A2978 RMK A01 T03260090  RH  023%=      5-min Rain = 0
KMD1 081916Z 23016KT 33/08 A2978 RMK A01 T03280082  RH  022%=      5-min Rain = 0
KMD1 081917Z 21009KT 33/08 A2978 RMK A01 T03250080  RH  022%=      5-min Rain = 0
KMD1 081918Z 20010G15KT 33/08 A2978 RMK A01 T03260083  RH  022%=      5-min Rain = 0
KMD1 081919Z 22012KT 32/07 A2977 RMK A01 T03240072  RH  021%=      5-min Rain = 0
KMD1 081920Z 24015KT 32/07 A2978 RMK A01 T03230065  RH  020%=      5-min Rain = 0
KMD1 081921Z 25016KT 32/06 A2977 RMK A01 T03220055  RH  019%=      5-min Rain = 0
KMD1 081922Z 25013KT 32/06 A2977 RMK A01 T03240057  RH  019%=      5-min Rain = 0
KMD1 081923Z 24015KT 32/06 A2977 RMK A01 T03240059  RH  019%=      5-min Rain = 0
KMD1 081924Z 22012G18KT 32/06 A2977 RMK A01 T03240063  RH  020%=      5-min Rain = 0
KMD1 081925Z 23011KT 33/07 A2977 RMK A01 T03260069  RH  020%=      5-min Rain = 0
KMD1 081926Z 25013KT 33/07 A2977 RMK A01 T03290070  RH  020%=      5-min Rain = 0
KMD1 081927Z 25010KT 33/07 A2977 RMK A01 T03310066  RH  019%=      5-min Rain = 0
KMD1 081928Z 22009KT 33/07 A2977 RMK A01 T03300065  RH  019%=      5-min Rain = 0
KMD1 081929Z 22011G17KT 33/07 A2977 RMK A01 T03290069  RH  020%=      5-min Rain = 0
KMD1 081930Z 23015KT 33/06 A2977 RMK A01 T03280062  RH  019%=      5-min Rain = 0
KMD1 081931Z 23012KT 33/06 A2977 RMK A01 T03280061  RH  019%=      5-min Rain = 0
KMD1 081932Z 23019KT 33/06 A2977 RMK A01 T03270057  RH  018%=      5-min Rain = 0
KMD1 081933Z 23017KT 32/06 A2977 RMK A01 T03240057  RH  019%=      5-min Rain = 0
KMD1 081934Z 22016G21KT 33/06 A2977 RMK A01 T03250061  RH  019%=      5-min Rain = 0
KMD1 081935Z 22017KT 33/05 A2977 RMK A01 T03260054  RH  018%=      5-min Rain = 0
KMD1 081936Z 23013KT 33/06 A2977 RMK A01 T03250062  RH  019%=      5-min Rain = 0
KMD1 081937Z 22010KT 32/07 A2977 RMK A01 T03230072  RH  021%=      5-min Rain = 0
KMD1 081938Z 22010KT 32/07 A2977 RMK A01 T03230073  RH  021%=      5-min Rain = 0
KMD1 081939Z 20012KT 32/08 A2977 RMK A01 T03230076  RH  022%=      5-min Rain = 0
KMD1 081940Z 22009KT 33/08 A2977 RMK A01 T03250078  RH  022%=      5-min Rain = 0
KMD1 081941Z 20009KT 33/08 A2977 RMK A01 T03280075  RH  021%=      5-min Rain = 0
KMD1 081942Z 22007KT 33/07 A2977 RMK A01 T03260073  RH  021%=      5-min Rain = 0
KMD1 081943Z 23012KT 32/07 A2977 RMK A01 T03230066  RH  020%=      5-min Rain = 0
KMD1 081944Z 24017KT 32/06 A2976 RMK A01 T03220056  RH  019%=      5-min Rain = 0
KMD1 081945Z 24019G24KT 33/06 A2976 RMK A01 T03270055  RH  018%=      5-min Rain = 0
KMD1 081946Z 24019KT 33/05 A2976 RMK A01 T03270052  RH  018%=      5-min Rain = 0
KMD1 081947Z 24018G23KT 33/05 A2977 RMK A01 T03250051  RH  018%=      5-min Rain = 0
KMD1 081948Z 23015KT 32/05 A2977 RMK A01 T03230049  RH  018%=      5-min Rain = 0
KMD1 081949Z 22013KT 32/06 A2977 RMK A01 T03220056  RH  019%=      5-min Rain = 0
KMD1 081950Z 21010KT 32/05 A2977 RMK A01 T03240054  RH  018%=      5-min Rain = 0
KMD1 081951Z 22011KT 32/06 A2976 RMK A01 T03240057  RH  019%=      5-min Rain = 0
KMD1 081952Z 21010KT 32/06 A2976 RMK A01 T03240059  RH  019%=      5-min Rain = 0
KMD1 081953Z 22013G20KT 32/06 A2976 RMK A01 T03240060  RH  019%=      5-min Rain = 0
KMD1 081954Z 24013G19KT 33/06 A2976 RMK A01 T03250057  RH  019%=      5-min Rain = 0
KMD1 081955Z 26011KT 33/06 A2976 RMK A01 T03250058  RH  019%=      5-min Rain = 0
KMD1 081956Z 26012G17KT 33/06 A2976 RMK A01 T03270061  RH  019%=      5-min Rain = 0
KMD1 081957Z 26014KT 33/06 A2976 RMK A01 T03280056  RH  018%=      5-min Rain = 0
KMD1 081958Z 27013KT 33/06 A2976 RMK A01 T03250057  RH  019%=      5-min Rain = 0
KMD1 081959Z 24012KT 33/06 A2976 RMK A01 T03250060  RH  019%=      5-min Rain = 0
KMD1 082000Z 22011KT 33/06 A2976 RMK A01 T03280063  RH  019%=      5-min Rain = 0
KMD1 082001Z 22010KT 33/06 A2976 RMK A01 T03300062  RH  019%=      5-min Rain = 0
KMD1 082002Z 23007KT 33/06 A2976 RMK A01 T03290056  RH  018%=      5-min Rain = 0
KMD1 082003Z 23009KT 33/06 A2976 RMK A01 T03270061  RH  019%=      5-min Rain = 0
KMD1 082004Z 24014G19KT 33/06 A2976 RMK A01 T03300057  RH  018%=      5-min Rain = 0
KMD1 082005Z 24012KT 33/04 A2975 RMK A01 T03310044  RH  017%=      5-min Rain = 0
KMD1 082006Z 23014KT 33/04 A2975 RMK A01 T03290038  RH  016%=      5-min Rain = 0
KMD1 082007Z 22019G24KT 33/03 A2975 RMK A01 T03290026  RH  015%=      5-min Rain = 0
KMD1 082008Z 22019G26KT 33/03 A2975 RMK A01 T03290025  RH  015%=      5-min Rain = 0
KMD1 082009Z 22019G24KT 33/02 A2975 RMK A01 T03300019  RH  014%=      5-min Rain = 0
KMD1 082010Z 26016G21KT 33/02 A2975 RMK A01 T03310018  RH  014%=      5-min Rain = 0
KMD1 082011Z 25015G21KT 33/02 A2976 RMK A01 T03310020  RH  014%=      5-min Rain = 0
KMD1 082012Z 24016KT 33/02 A2976 RMK A01 T03290021  RH  014%=      5-min Rain = 0
KMD1 082013Z 26014G19KT 33/02 A2975 RMK A01 T03290021  RH  014%=      5-min Rain = 0
KMD1 082014Z 25013KT 33/02 A2975 RMK A01 T03300020  RH  014%=      5-min Rain = 0
KMD1 082015Z 25011KT 33/02 A2975 RMK A01 T03310020  RH  014%=      5-min Rain = 0
KMD1 082016Z 24010KT 33/02 A2975 RMK A01 T03310021  RH  014%=      5-min Rain = 0
KMD1 082017Z 23016KT 33/02 A2975 RMK A01 T03330021  RH  014%=      5-min Rain = 0
KMD1 082018Z 22012KT 33/02 A2975 RMK A01 T03320020  RH  014%=      5-min Rain = 0
KMD1 082019Z 24010KT 33/02 A2975 RMK A01 T03300019  RH  014%=      5-min Rain = 0
KMD1 082020Z 23009G15KT 33/02 A2975 RMK A01 T03300023  RH  014%=      5-min Rain = 0
KMD1 082021Z 24013G19KT 33/02 A2975 RMK A01 T03320016  RH  013%=      5-min Rain = 0
KMD1 082022Z 24016G21KT 33/M01 A2975 RMK A01 T03341008  RH  011%=      5-min Rain = 0
KMD1 082023Z 25016KT 33/M02 A2975 RMK A01 T03341017  RH  011%=      5-min Rain = 0
KMD1 082024Z 25016G23KT 33/M02 A2975 RMK A01 T03331021  RH  010%=      5-min Rain = 0
KMD1 082025Z 26014G19KT 33/M03 A2975 RMK A01 T03321033  RH  009%=      5-min Rain = 0
KMD1 082026Z 26012KT 33/M04 A2975 RMK A01 T03291037  RH  009%=      5-min Rain = 0
KMD1 082027Z 26009G14KT 33/M03 A2975 RMK A01 T03291029  RH  010%=      5-min Rain = 0
KMD1 082028Z 28012KT 33/M03 A2975 RMK A01 T03281027  RH  010%=      5-min Rain = 0
KMD1 082029Z 27009KT 33/M03 A2975 RMK A01 T03271027  RH  010%=      5-min Rain = 0
KMD1 082030Z 26011G17KT 33/M01 A2975 RMK A01 T03291010  RH  011%=      5-min Rain = 0
KMD1 082031Z 26011KT 33/M02 A2975 RMK A01 T03321018  RH  011%=      5-min Rain = 0
KMD1 082032Z 25013KT 33/M01 A2975 RMK A01 T03321014  RH  011%=      5-min Rain = 0
KMD1 082033Z 24014KT 33/M02 A2975 RMK A01 T03321018  RH  011%=      5-min Rain = 0
KMD1 082034Z 25012KT 33/M02 A2975 RMK A01 T03321016  RH  011%=      5-min Rain = 0
KMD1 082035Z 25011KT 33/M01 A2975 RMK A01 T03301014  RH  011%=      5-min Rain = 0
KMD1 082036Z 26010KT 33/M02 A2975 RMK A01 T03301016  RH  011%=      5-min Rain = 0
KMD1 082037Z 27009G15KT 33/M01 A2975 RMK A01 T03291007  RH  012%=      5-min Rain = 0
KMD1 082038Z 27012G17KT 33/M02 A2974 RMK A01 T03341016  RH  011%=      5-min Rain = 0
KMD1 082039Z 28013KT 34/M03 A2974 RMK A01 T03351029  RH  010%=      5-min Rain = 0
KMD1 082040Z 27012KT 33/M03 A2974 RMK A01 T03331032  RH  009%=      5-min Rain = 0
KMD1 082041Z 27012KT 33/M03 A2974 RMK A01 T03331026  RH  010%=      5-min Rain = 0
KMD1 082042Z 25015KT 34/M03 A2974 RMK A01 T03351026  RH  010%=      5-min Rain = 0
KMD1 082043Z 27013KT 33/M03 A2974 RMK A01 T03341032  RH  009%=      5-min Rain = 0
KMD1 082044Z 26010KT 33/M03 A2975 RMK A01 T03321032  RH  009%=      5-min Rain = 0
KMD1 082045Z 26010KT 33/M04 A2974 RMK A01 T03331044  RH  009%=      5-min Rain = 0
KMD1 082046Z 26007KT 33/M02 A2974 RMK A01 T03321018  RH  011%=      5-min Rain = 0
KMD1 082047Z 27008KT 34/M02 A2974 RMK A01 T03351015  RH  011%=      5-min Rain = 0
KMD1 082048Z 25011KT 34/M02 A2974 RMK A01 T03361023  RH  010%=      5-min Rain = 0
KMD1 082049Z 26014G19KT 34/M03 A2974 RMK A01 T03351025  RH  010%=      5-min Rain = 0
KMD1 082050Z 26012G18KT 34/M03 A2974 RMK A01 T03351029  RH  010%=      5-min Rain = 0
KMD1 082051Z 26014KT 34/M03 A2974 RMK A01 T03351027  RH  010%=      5-min Rain = 0
KMD1 082052Z 27016KT 33/M03 A2974 RMK A01 T03341033  RH  009%=      5-min Rain = 0
KMD1 082053Z 27012KT 33/M04 A2974 RMK A01 T03321040  RH  009%=      5-min Rain = 0
KMD1 082054Z 26014KT 33/M03 A2974 RMK A01 T03291033  RH  010%=      5-min Rain = 0
KMD1 082055Z 26011KT 33/M04 A2974 RMK A01 T03301035  RH  009%=      5-min Rain = 0
KMD1 082056Z 25008KT 33/M02 A2974 RMK A01 T03311024  RH  010%=      5-min Rain = 0
KMD1 082057Z 27010KT 33/M03 A2974 RMK A01 T03321031  RH  010%=      5-min Rain = 0
KMD1 082058Z 27010KT 33/M02 A2974 RMK A01 T03301023  RH  010%=      5-min Rain = 0
KMD1 082059Z 27010KT 33/M02 A2974 RMK A01 T03301016  RH  011%=      5-min Rain = 0
KMD1 082100Z 25008KT 33/M02 A2974 RMK A01 T03331018  RH  011%=      5-min Rain = 0
KMD1 082101Z 25006KT 33/M02 A2974 RMK A01 T03321022  RH  010%=      5-min Rain = 0
KMD1 082102Z 26006KT 33/M02 A2974 RMK A01 T03331021  RH  010%=      5-min Rain = 0
KMD1 082103Z 26012KT 33/M02 A2973 RMK A01 T03341019  RH  010%=      5-min Rain = 0
KMD1 082104Z 28014G19KT 33/M02 A2973 RMK A01 T03341019  RH  010%=      5-min Rain = 0
KMD1 082105Z 27014G19KT 33/M02 A2973 RMK A01 T03341021  RH  010%=      5-min Rain = 0
KMD1 082106Z 27015G20KT 33/M02 A2973 RMK A01 T03341018  RH  010%=      5-min Rain = 0
KMD1 082107Z 27010KT 34/M03 A2973 RMK A01 T03361029  RH  009%=      5-min Rain = 0
KMD1 082108Z 28008KT 33/M03 A2973 RMK A01 T03311028  RH  010%=      5-min Rain = 0
KMD1 082109Z 28008KT 33/M03 A2973 RMK A01 T03301025  RH  010%=      5-min Rain = 0
KMD1 082110Z 25007KT 33/M03 A2973 RMK A01 T03301033  RH  010%=      5-min Rain = 0
KMD1 082111Z 27012KT 33/M03 A2973 RMK A01 T03301029  RH  010%=      5-min Rain = 0
KMD1 082112Z 27010KT 33/M03 A2973 RMK A01 T03311030  RH  010%=      5-min Rain = 0
KMD1 082113Z 25011KT 33/M03 A2973 RMK A01 T03311025  RH  010%=      5-min Rain = 0
KMD1 082114Z 24010KT 33/M03 A2973 RMK A01 T03331031  RH  010%=      5-min Rain = 0
KMD1 082115Z 25009KT 33/M04 A2973 RMK A01 T03321039  RH  009%=      5-min Rain = 0
KMD1 082116Z 26005KT 33/M04 A2973 RMK A01 T03301040  RH  009%=      5-min Rain = 0
KMD1 082117Z 23005G10KT 33/M03 A2973 RMK A01 T03311027  RH  010%=      5-min Rain = 0
KMD1 082118Z 23007KT 33/M04 A2973 RMK A01 T03331040  RH  009%=      5-min Rain = 0
KMD1 082119Z 25011KT 33/M04 A2973 RMK A01 T03321037  RH  009%=      5-min Rain = 0
KMD1 082120Z 24010KT 33/M04 A2973 RMK A01 T03321040  RH  009%=      5-min Rain = 0
KMD1 082121Z 27008G14KT 33/M03 A2973 RMK A01 T03341034  RH  009%=      5-min Rain = 0
KMD1 082122Z 28013KT 34/M03 A2972 RMK A01 T03351026  RH  010%=      5-min Rain = 0
KMD1 082123Z 28017KT 34/M02 A2972 RMK A01 T03381021  RH  010%=      5-min Rain = 0
KMD1 082124Z 27016KT 34/M04 A2972 RMK A01 T03381035  RH  009%=      5-min Rain = 0
KMD1 082125Z 28014KT 33/M04 A2972 RMK A01 T03341035  RH  009%=      5-min Rain = 0
KMD1 082126Z 27013KT 33/M03 A2972 RMK A01 T03331034  RH  009%=      5-min Rain = 0
KMD1 082127Z 27011KT 33/M03 A2972 RMK A01 T03321028  RH  010%=      5-min Rain = 0
KMD1 082128Z 26010KT 33/M04 A2972 RMK A01 T03341039  RH  009%=      5-min Rain = 0
KMD1 082129Z 26010KT 33/M04 A2972 RMK A01 T03341040  RH  009%=      5-min Rain = 0
KMD1 082130Z 24009KT 33/M04 A2972 RMK A01 T03331036  RH  009%=      5-min Rain = 0
KMD1 082131Z 24010KT 33/M04 A2972 RMK A01 T03331042  RH  009%=      5-min Rain = 0
KMD1 082132Z 25010KT 33/M04 A2972 RMK A01 T03331038  RH  009%=      5-min Rain = 0
KMD1 082133Z 25011KT 33/M04 A2972 RMK A01 T03341037  RH  009%=      5-min Rain = 0
KMD1 082134Z 24012G17KT 34/M04 A2972 RMK A01 T03351037  RH  009%=      5-min Rain = 0
KMD1 082135Z 25013KT 34/M04 A2972 RMK A01 T03371042  RH  009%=      5-min Rain = 0
KMD1 082136Z 24011KT 33/M04 A2972 RMK A01 T03341040  RH  009%=      5-min Rain = 0
KMD1 082137Z 23011KT 34/M04 A2972 RMK A01 T03351035  RH  009%=      5-min Rain = 0
KMD1 082138Z 21012KT 34/M03 A2972 RMK A01 T03361033  RH  009%=      5-min Rain = 0
KMD1 082139Z 21010KT 34/M05 A2972 RMK A01 T03351046  RH  008%=      5-min Rain = 0
KMD1 082140Z 23009G14KT 33/M05 A2972 RMK A01 T03321045  RH  009%=      5-min Rain = 0
KMD1 082141Z 25008KT 33/M04 A2972 RMK A01 T03311040  RH  009%=      5-min Rain = 0
KMD1 082142Z 24011KT 33/M03 A2972 RMK A01 T03331034  RH  009%=      5-min Rain = 0
KMD1 082143Z 24008KT 33/M04 A2972 RMK A01 T03341042  RH  009%=      5-min Rain = 0
KMD1 082144Z 24007KT 33/M04 A2972 RMK A01 T03331038  RH  009%=      5-min Rain = 0
KMD1 082145Z 21013KT 33/M04 A2971 RMK A01 T03331040  RH  009%=      5-min Rain = 0
KMD1 082146Z 23019G27KT 33/M04 A2971 RMK A01 T03331039  RH  009%=      5-min Rain = 0
KMD1 082147Z 24015KT 33/M04 A2972 RMK A01 T03341041  RH  009%=      5-min Rain = 0
KMD1 082148Z 24015KT 33/M04 A2972 RMK A01 T03341044  RH  009%=      5-min Rain = 0
KMD1 082149Z 26015KT 33/M05 A2972 RMK A01 T03331045  RH  009%=      5-min Rain = 0
KMD1 082150Z 27012KT 33/M05 A2972 RMK A01 T03321049  RH  008%=      5-min Rain = 0
KMD1 082151Z 25010KT 33/M04 A2972 RMK A01 T03311043  RH  009%=      5-min Rain = 0
KMD1 082152Z 25012KT 33/M04 A2972 RMK A01 T03331044  RH  009%=      5-min Rain = 0
KMD1 082153Z 25011KT 33/M04 A2972 RMK A01 T03331043  RH  009%=      5-min Rain = 0
KMD1 082154Z 25011KT 33/M05 A2972 RMK A01 T03331048  RH  008%=      5-min Rain = 0
KMD1 082155Z 25009KT 33/M05 A2972 RMK A01 T03321049  RH  008%=      5-min Rain = 0
KMD1 082156Z 25009KT 33/M04 A2972 RMK A01 T03321038  RH  009%=      5-min Rain = 0
KMD1 082157Z 26011KT 34/M04 A2972 RMK A01 T03351044  RH  009%=      5-min Rain = 0
KMD1 082158Z 26010KT 33/M05 A2972 RMK A01 T03341046  RH  008%=      5-min Rain = 0
KMD1 082159Z 26009KT 33/M04 A2972 RMK A01 T03331037  RH  009%=      5-min Rain = 0
KMD1 082200Z 25011KT 33/M04 A2972 RMK A01 T03341040  RH  009%=      5-min Rain = 0
KMD1 082201Z 25011KT 33/M05 A2972 RMK A01 T03341046  RH  008%=      5-min Rain = 0
KMD1 082202Z 25009KT 33/M05 A2972 RMK A01 T03321048  RH  008%=      5-min Rain = 0
KMD1 082203Z 24008KT 33/M05 A2972 RMK A01 T03311046  RH  009%=      5-min Rain = 0
KMD1 082204Z 27004KT 33/M05 A2972 RMK A01 T03301050  RH  008%=      5-min Rain = 0
KMD1 082205Z 24003KT 33/M05 A2971 RMK A01 T03291045  RH  009%=      5-min Rain = 0
KMD1 082206Z 21006KT 33/M03 A2971 RMK A01 T03311034  RH  009%=      5-min Rain = 0
KMD1 082207Z 20008KT 33/M04 A2971 RMK A01 T03341037  RH  009%=      5-min Rain = 0
KMD1 082208Z 18012G18KT 33/M04 A2971 RMK A01 T03341037  RH  009%=      5-min Rain = 0
KMD1 082209Z 21018KT 34/M04 A2971 RMK A01 T03351036  RH  009%=      5-min Rain = 0
KMD1 082210Z 26015G23KT 33/M04 A2971 RMK A01 T03341039  RH  009%=      5-min Rain = 0
KMD1 082211Z 26011G16KT 33/M04 A2971 RMK A01 T03341035  RH  009%=      5-min Rain = 0
KMD1 082212Z 25010KT 33/M05 A2971 RMK A01 T03341049  RH  008%=      5-min Rain = 0
KMD1 082213Z 26011KT 33/M04 A2971 RMK A01 T03331041  RH  009%=      5-min Rain = 0
KMD1 082214Z 27010KT 33/M04 A2971 RMK A01 T03341039  RH  009%=      5-min Rain = 0
KMD1 082215Z 26012KT 33/M04 A2971 RMK A01 T03341043  RH  009%=      5-min Rain = 0
KMD1 082216Z 26010G15KT 33/M05 A2971 RMK A01 T03331046  RH  009%=      5-min Rain = 0
KMD1 082217Z 23010KT 33/M04 A2971 RMK A01 T03321043  RH  009%=      5-min Rain = 0
KMD1 082218Z 21007KT 33/M05 A2971 RMK A01 T03321046  RH  009%=      5-min Rain = 0
KMD1 082219Z 23007KT 33/M04 A2971 RMK A01 T03311038  RH  009%=      5-min Rain = 0
KMD1 082220Z 24007KT 33/M04 A2971 RMK A01 T03321043  RH  009%=      5-min Rain = 0
KMD1 082221Z 26010KT 33/M04 A2971 RMK A01 T03321041  RH  009%=      5-min Rain = 0
KMD1 082222Z 26009KT 33/M04 A2971 RMK A01 T03321041  RH  009%=      5-min Rain = 0
KMD1 082223Z 28007KT 33/M04 A2971 RMK A01 T03321041  RH  009%=      5-min Rain = 0
KMD1 082224Z 27008KT 33/M03 A2971 RMK A01 T03321034  RH  009%=      5-min Rain = 0
KMD1 082225Z 27007KT 33/M04 A2971 RMK A01 T03321040  RH  009%=      5-min Rain = 0
KMD1 082226Z 26004KT 33/M04 A2971 RMK A01 T03311036  RH  009%=      5-min Rain = 0
KMD1 082227Z 24006KT 33/M03 A2971 RMK A01 T03311034  RH  009%=      5-min Rain = 0
KMD1 082228Z 25008KT 33/M04 A2971 RMK A01 T03321041  RH  009%=      5-min Rain = 0
KMD1 082229Z 23010KT 33/M05 A2971 RMK A01 T03311045  RH  009%=      5-min Rain = 0
KMD1 082230Z 23010KT 33/M05 A2971 RMK A01 T03301050  RH  008%=      5-min Rain = 0
KMD1 082231Z 22010KT 33/M05 A2971 RMK A01 T03291051  RH  008%=      5-min Rain = 0
KMD1 082232Z 21008KT 33/M04 A2971 RMK A01 T03301037  RH  009%=      5-min Rain = 0
KMD1 082233Z 21009KT 33/M04 A297 RMK A01 T03331037  RH  009%=      5-min Rain = 0
KMD1 082234Z 21010KT 33/M04 A297 RMK A01 T03341035  RH  009%=      5-min Rain = 0
KMD1 082235Z 21010KT 34/M04 A297 RMK A01 T03351038  RH  009%=      5-min Rain = 0
KMD1 082236Z 21010KT 34/M04 A297 RMK A01 T03351035  RH  009%=      5-min Rain = 0
KMD1 082237Z 21011KT 34/M04 A297 RMK A01 T03351037  RH  009%=      5-min Rain = 0
KMD1 082238Z 23011KT 33/M04 A297 RMK A01 T03331039  RH  009%=      5-min Rain = 0
KMD1 082239Z 23011KT 33/M03 A297 RMK A01 T03331033  RH  009%=      5-min Rain = 0
KMD1 082240Z 24014KT 33/M04 A297 RMK A01 T03341038  RH  009%=      5-min Rain = 0
KMD1 082241Z 23009KT 33/M04 A297 RMK A01 T03321038  RH  009%=      5-min Rain = 0
KMD1 082242Z 23009KT 33/M04 A297 RMK A01 T03321038  RH  009%=      5-min Rain = 0
KMD1 082243Z 25010KT 33/M03 A297 RMK A01 T03321031  RH  010%=      5-min Rain = 0
KMD1 082244Z 26012KT 33/M04 A297 RMK A01 T03321037  RH  009%=      5-min Rain = 0
KMD1 082245Z 27012KT 33/M04 A297 RMK A01 T03311042  RH  009%=      5-min Rain = 0
KMD1 082246Z 27009KT 33/M04 A297 RMK A01 T03291044  RH  009%=      5-min Rain = 0
KMD1 082247Z 27006KT 33/M04 A297 RMK A01 T03281043  RH  009%=      5-min Rain = 0
KMD1 082248Z 25005KT 33/M05 A297 RMK A01 T03271050  RH  009%=      5-min Rain = 0
KMD1 082249Z 24004KT 33/M04 A297 RMK A01 T03261044  RH  009%=      5-min Rain = 0
KMD1 082250Z 23005KT 33/M05 A297 RMK A01 T03261046  RH  009%=      5-min Rain = 0
KMD1 082251Z 24005KT 33/M05 A297 RMK A01 T03261051  RH  009%=      5-min Rain = 0
KMD1 082252Z 23006KT 33/M04 A297 RMK A01 T03261042  RH  009%=      5-min Rain = 0
KMD1 082253Z 24007KT 33/M04 A297 RMK A01 T03261040  RH  009%=      5-min Rain = 0
KMD1 082254Z 24006KT 33/M03 A297 RMK A01 T03271034  RH  010%=      5-min Rain = 0
KMD1 082255Z 24005KT 33/M03 A297 RMK A01 T03281031  RH  010%=      5-min Rain = 0
KMD1 082256Z 25006KT 33/M04 A297 RMK A01 T03291038  RH  009%=      5-min Rain = 0
KMD1 082257Z 24004KT 33/M04 A297 RMK A01 T03271041  RH  009%=      5-min Rain = 0
KMD1 082258Z 23006KT 33/M04 A297 RMK A01 T03271038  RH  009%=      5-min Rain = 0
KMD1 082259Z 23005KT 33/M04 A297 RMK A01 T03261044  RH  009%=      5-min Rain = 0
KMD1 082300Z 21005KT 33/M05 A297 RMK A01 T03261050  RH  009%=      5-min Rain = 0
KMD1 082301Z 22007KT 33/M04 A297 RMK A01 T03251039  RH  009%=      5-min Rain = 0
KMD1 082302Z 22007KT 33/M04 A297 RMK A01 T03251036  RH  010%=      5-min Rain = 0
KMD1 082303Z 22007KT 33/M04 A297 RMK A01 T03261035  RH  010%=      5-min Rain = 0
KMD1 082304Z 22010KT 33/M04 A297 RMK A01 T03261035  RH  010%=      5-min Rain = 0
KMD1 082305Z 24008KT 33/M03 A297 RMK A01 T03271033  RH  010%=      5-min Rain = 0
KMD1 082306Z 25012KT 33/M04 A297 RMK A01 T03281038  RH  009%=      5-min Rain = 0
KMD1 082307Z 25010KT 33/M04 A297 RMK A01 T03281042  RH  009%=      5-min Rain = 0
KMD1 082308Z 24011KT 33/M05 A297 RMK A01 T03271045  RH  009%=      5-min Rain = 0
KMD1 082309Z 22009KT 33/M04 A297 RMK A01 T03271041  RH  009%=      5-min Rain = 0
KMD1 082310Z 22010KT 33/M04 A297 RMK A01 T03271044  RH  009%=      5-min Rain = 0
KMD1 082311Z 22010KT 33/M05 A297 RMK A01 T03251047  RH  009%=      5-min Rain = 0
KMD1 082312Z 21007KT 32/M04 A297 RMK A01 T03231044  RH  009%=      5-min Rain = 0
KMD1 082313Z 22007KT 32/M04 A297 RMK A01 T03221039  RH  010%=      5-min Rain = 0
KMD1 082314Z 22008KT 32/M04 A297 RMK A01 T03201038  RH  010%=      5-min Rain = 0
KMD1 082315Z 22009KT 32/M04 A297 RMK A01 T03201042  RH  009%=      5-min Rain = 0
KMD1 082316Z 22008KT 32/M05 A297 RMK A01 T03201050  RH  009%=      5-min Rain = 0
KMD1 082317Z 20008KT 32/M05 A2969 RMK A01 T03211050  RH  009%=      5-min Rain = 0
KMD1 082318Z 20009KT 32/M05 A2969 RMK A01 T03221051  RH  009%=      5-min Rain = 0
KMD1 082319Z 20006KT 32/M05 A2969 RMK A01 T03221048  RH  009%=      5-min Rain = 0
KMD1 082320Z 22006KT 32/M04 A2969 RMK A01 T03231039  RH  009%=      5-min Rain = 0
KMD1 082321Z 23008KT 32/M04 A2969 RMK A01 T03231037  RH  010%=      5-min Rain = 0
KMD1 082322Z 24008KT 32/M04 A2969 RMK A01 T03231042  RH  009%=      5-min Rain = 0
KMD1 082323Z 24007KT 32/M04 A297 RMK A01 T03231040  RH  009%=      5-min Rain = 0
KMD1 082324Z 23007KT 32/M05 A2969 RMK A01 T03231045  RH  009%=      5-min Rain = 0
KMD1 082325Z 23007KT 32/M05 A2969 RMK A01 T03221053  RH  009%=      5-min Rain = 0
KMD1 082326Z 23005KT 32/M05 A2969 RMK A01 T03221048  RH  009%=      5-min Rain = 0
KMD1 082327Z 24006KT 32/M05 A2969 RMK A01 T03231045  RH  009%=      5-min Rain = 0
KMD1 082328Z 24006KT 32/M05 A297 RMK A01 T03241048  RH  009%=      5-min Rain = 0
KMD1 082329Z 22006KT 33/M04 A297 RMK A01 T03251044  RH  009%=      5-min Rain = 0
KMD1 082330Z 20007KT 33/M04 A2969 RMK A01 T03261040  RH  009%=      5-min Rain = 0
KMD1 082331Z 20006KT 33/M04 A2969 RMK A01 T03271039  RH  009%=      5-min Rain = 0
KMD1 082332Z 19005KT 33/M03 A2969 RMK A01 T03271031  RH  010%=      5-min Rain = 0
KMD1 082333Z 19005KT 33/M02 A2969 RMK A01 T03281024  RH  010%=      5-min Rain = 0
KMD1 082334Z 20006KT 33/M04 A2969 RMK A01 T03291035  RH  009%=      5-min Rain = 0
KMD1 082335Z 19006KT 33/M03 A2969 RMK A01 T03291029  RH  010%=      5-min Rain = 0
KMD1 082336Z 20007KT 33/M03 A2969 RMK A01 T03291031  RH  010%=      5-min Rain = 0
KMD1 082337Z 20008KT 33/M03 A2969 RMK A01 T03281026  RH  010%=      5-min Rain = 0
KMD1 082338Z 20007KT 33/M04 A2969 RMK A01 T03281037  RH  009%=      5-min Rain = 0
KMD1 082339Z 20007KT 33/M04 A2969 RMK A01 T03271041  RH  009%=      5-min Rain = 0
KMD1 082340Z 19008KT 33/M04 A2969 RMK A01 T03271036  RH  010%=      5-min Rain = 0
KMD1 082341Z 20007KT 33/M04 A2969 RMK A01 T03271038  RH  009%=      5-min Rain = 0
KMD1 082342Z 20007KT 33/M05 A2969 RMK A01 T03271045  RH  009%=      5-min Rain = 0
KMD1 082343Z 20008KT 33/M04 A2969 RMK A01 T03261040  RH  009%=      5-min Rain = 0
KMD1 082344Z 21007KT 33/M05 A2969 RMK A01 T03261049  RH  009%=      5-min Rain = 0
KMD1 082345Z 20006KT 33/M05 A2969 RMK A01 T03261047  RH  009%=      5-min Rain = 0
KMD1 082346Z 18005KT 33/M03 A2969 RMK A01 T03251032  RH  010%=      5-min Rain = 0
KMD1 082347Z 20006KT 33/M03 A2969 RMK A01 T03261030  RH  010%=      5-min Rain = 0
KMD1 082348Z 21010KT 33/M04 A2969 RMK A01 T03251040  RH  009%=      5-min Rain = 0
KMD1 082349Z 22008KT 32/M04 A2969 RMK A01 T03231041  RH  009%=      5-min Rain = 0
KMD1 082350Z 22008KT 32/M04 A2969 RMK A01 T03211040  RH  009%=      5-min Rain = 0
KMD1 082351Z 22008KT 32/M05 A2969 RMK A01 T03191049  RH  009%=      5-min Rain = 0
KMD1 082352Z 23008KT 32/M05 A2969 RMK A01 T03181046  RH  009%=      5-min Rain = 0
KMD1 082353Z 23010KT 32/M06 A2969 RMK A01 T03181056  RH  009%=      5-min Rain = 0
KMD1 082354Z 24008KT 32/M06 A2969 RMK A01 T03191057  RH  008%=      5-min Rain = 0
KMD1 082355Z 23007KT 32/M06 A2969 RMK A01 T03201058  RH  008%=      5-min Rain = 0
KMD1 082356Z 23007KT 32/M05 A2969 RMK A01 T03211053  RH  009%=      5-min Rain = 0
KMD1 082357Z 24007KT 32/M05 A2969 RMK A01 T03211049  RH  009%=      5-min Rain = 0
KMD1 082358Z 22008KT 32/M05 A2969 RMK A01 T03221053  RH  009%=      5-min Rain = 0
KMD1 082359Z 22008KT 32/M05 A2969 RMK A01 T03221054  RH  009%=      5-min Rain = 0
KMD1 090000Z 23007KT 32/M05 A2969 RMK A01 T03221047  RH  009%=      5-min Rain = 0
KMD1 090001Z 24008KT 32/M05 A2969 RMK A01 T03221050  RH  009%=      5-min Rain = 0
KMD1 090002Z 23008KT 32/M05 A2969 RMK A01 T03221054  RH  009%=      5-min Rain = 0
KMD1 090003Z 24006KT 32/M05 A2969 RMK A01 T03221048  RH  009%=      5-min Rain = 0
KMD1 090004Z 23007KT 32/M05 A2969 RMK A01 T03211046  RH  009%=      5-min Rain = 0
KMD1 090005Z 24008KT 32/M05 A2969 RMK A01 T03191054  RH  009%=      5-min Rain = 0
KMD1 090006Z 22006KT 32/M05 A2969 RMK A01 T03181047  RH  009%=      5-min Rain = 0
KMD1 090007Z 22007KT 32/M05 A2969 RMK A01 T03151046  RH  009%=      5-min Rain = 0
KMD1 090008Z 22006KT 32/M05 A2969 RMK A01 T03151053  RH  009%=      5-min Rain = 0
KMD1 090009Z 21005KT 31/M05 A2969 RMK A01 T03131046  RH  009%=      5-min Rain = 0
KMD1 090010Z 22005KT 31/M04 A2969 RMK A01 T03121039  RH  010%=      5-min Rain = 0
KMD1 090011Z 22006KT 31/M04 A2969 RMK A01 T03101042  RH  010%=      5-min Rain = 0
KMD1 090012Z 22006KT 31/M04 A2969 RMK A01 T03091039  RH  010%=      5-min Rain = 0
KMD1 090013Z 22006KT 31/M04 A2969 RMK A01 T03091037  RH  010%=      5-min Rain = 0
KMD1 090014Z 21006KT 31/M04 A2969 RMK A01 T03081036  RH  011%=      5-min Rain = 0
KMD1 090015Z 21006KT 31/M03 A2969 RMK A01 T03081031  RH  011%=      5-min Rain = 0
KMD1 090016Z 21005KT 31/M03 A2969 RMK A01 T03081034  RH  011%=      5-min Rain = 0
KMD1 090017Z 21006KT 31/M03 A2969 RMK A01 T03081034  RH  011%=      5-min Rain = 0
KMD1 090018Z 21006KT 31/M04 A2969 RMK A01 T03081035  RH  011%=      5-min Rain = 0
KMD1 090019Z 20006KT 31/M03 A2969 RMK A01 T03081030  RH  011%=      5-min Rain = 0
KMD1 090020Z 20007KT 31/M03 A2969 RMK A01 T03081029  RH  011%=      5-min Rain = 0
KMD1 090021Z 20006KT 31/M03 A2969 RMK A01 T03071025  RH  012%=      5-min Rain = 0
KMD1 090022Z 20006KT 31/M03 A2969 RMK A01 T03061027  RH  011%=      5-min Rain = 0
KMD1 090023Z 21005KT 31/M03 A2969 RMK A01 T03051026  RH  012%=      5-min Rain = 0
KMD1 090024Z 20005KT 30/M03 A2969 RMK A01 T03041027  RH  012%=      5-min Rain = 0
KMD1 090025Z 20006KT 30/M02 A2969 RMK A01 T03041019  RH  012%=      5-min Rain = 0
KMD1 090026Z 20005KT 30/M02 A2969 RMK A01 T03021023  RH  012%=      5-min Rain = 0
KMD1 090027Z 20005KT 30/M02 A2969 RMK A01 T03011019  RH  012%=      5-min Rain = 0
KMD1 090028Z 20005KT 30/M02 A2969 RMK A01 T03001019  RH  012%=      5-min Rain = 0
KMD1 090029Z 20006KT 30/M02 A2969 RMK A01 T02991020  RH  012%=      5-min Rain = 0
KMD1 090030Z 20006KT 30/M02 A2969 RMK A01 T02991023  RH  012%=      5-min Rain = 0
KMD1 090031Z 20005KT 30/M02 A2969 RMK A01 T02991021  RH  012%=      5-min Rain = 0
KMD1 090032Z 20005KT 30/M02 A2969 RMK A01 T02981020  RH  013%=      5-min Rain = 0
KMD1 090033Z 20005KT 30/M02 A2969 RMK A01 T02971022  RH  012%=      5-min Rain = 0
KMD1 090034Z 20005KT 30/M02 A2969 RMK A01 T02971021  RH  013%=      5-min Rain = 0
KMD1 090035Z 20005KT 30/M02 A2969 RMK A01 T02961016  RH  013%=      5-min Rain = 0
KMD1 090036Z 20005KT 30/M02 A2969 RMK A01 T02951018  RH  013%=      5-min Rain = 0
KMD1 090037Z 20005KT 29/M02 A2969 RMK A01 T02941019  RH  013%=      5-min Rain = 0
KMD1 090038Z 20005KT 29/M02 A2969 RMK A01 T02931020  RH  013%=      5-min Rain = 0
KMD1 090039Z 21005KT 29/M02 A2969 RMK A01 T02921019  RH  013%=      5-min Rain = 0
KMD1 090040Z 20005KT 29/M02 A2969 RMK A01 T02911018  RH  013%=      5-min Rain = 0
KMD1 090041Z 21005KT 29/M02 A2969 RMK A01 T02901023  RH  013%=      5-min Rain = 0
KMD1 090042Z 21005KT 29/M02 A2969 RMK A01 T02891021  RH  013%=      5-min Rain = 0
KMD1 090043Z 21005KT 29/M02 A2969 RMK A01 T02881018  RH  013%=      5-min Rain = 0
KMD1 090044Z 21005KT 29/M02 A2969 RMK A01 T02861018  RH  014%=      5-min Rain = 0
KMD1 090045Z 21005KT 29/M02 A2969 RMK A01 T02861020  RH  014%=      5-min Rain = 0
KMD1 090046Z 20005KT 29/M02 A2969 RMK A01 T02851023  RH  013%=      5-min Rain = 0
KMD1 090047Z 20005KT 29/M02 A2969 RMK A01 T02851024  RH  013%=      5-min Rain = 0
KMD1 090048Z 20005KT 29/M02 A2969 RMK A01 T02851024  RH  013%=      5-min Rain = 0
KMD1 090049Z 20004KT 29/M03 A2969 RMK A01 T02851027  RH  013%=      5-min Rain = 0
KMD1 090050Z 20004KT 29/M02 A2969 RMK A01 T02851023  RH  013%=      5-min Rain = 0
KMD1 090051Z 20004KT 29/M02 A297 RMK A01 T02851024  RH  013%=      5-min Rain = 0
KMD1 090052Z 20004KT 28/M03 A297 RMK A01 T02841025  RH  013%=      5-min Rain = 0
KMD1 090053Z 20004KT 28/M03 A2969 RMK A01 T02841025  RH  013%=      5-min Rain = 0
KMD1 090054Z 20004KT 28/M02 A2969 RMK A01 T02841024  RH  013%=      5-min Rain = 0
KMD1 090055Z 20004KT 28/M02 A2969 RMK A01 T02831024  RH  013%=      5-min Rain = 0
KMD1 090056Z 20003KT 28/M02 A2969 RMK A01 T02831023  RH  013%=      5-min Rain = 0
KMD1 090057Z 20003KT 28/M02 A297 RMK A01 T02821021  RH  014%=      5-min Rain = 0
KMD1 090058Z 20003KT 28/M02 A297 RMK A01 T02811022  RH  014%=      5-min Rain = 0
KMD1 090059Z 20003KT 28/M02 A297 RMK A01 T02791018  RH  014%=      5-min Rain = 0
KMD1 090100Z 20003KT 28/M02 A297 RMK A01 T02771019  RH  014%=      5-min Rain = 0
KMD1 090101Z 20003KT 28/M02 A297 RMK A01 T02751021  RH  014%=      5-min Rain = 0
KMD1 090102Z 19003KT 27/M02 A297 RMK A01 T02741022  RH  014%=      5-min Rain = 0
KMD1 090103Z 19002KT 27/M02 A297 RMK A01 T02721022  RH  014%=      5-min Rain = 0
KMD1 090104Z 19003KT 27/M02 A297 RMK A01 T02711022  RH  014%=      5-min Rain = 0
KMD1 090105Z 18003KT 27/M02 A297 RMK A01 T02691023  RH  015%=      5-min Rain = 0
KMD1 090106Z 18003KT 27/M02 A297 RMK A01 T02681022  RH  015%=      5-min Rain = 0
KMD1 090107Z 18003KT 27/M02 A297 RMK A01 T02661021  RH  015%=      5-min Rain = 0
KMD1 090108Z 18003KT 27/M02 A297 RMK A01 T02651021  RH  015%=      5-min Rain = 0
KMD1 090109Z 18002KT 27/M02 A297 RMK A01 T02651021  RH  015%=      5-min Rain = 0
KMD1 090110Z 18002KT 26/M02 A297 RMK A01 T02641020  RH  015%=      5-min Rain = 0
KMD1 090111Z 19001KT 26/M01 A297 RMK A01 T02641013  RH  016%=      5-min Rain = 0
KMD1 090112Z 22000KT 26/M00 A297 RMK A01 T02611004  RH  018%=      5-min Rain = 0
KMD1 090113Z 22000KT 26/M01 A297 RMK A01 T02591011  RH  017%=      5-min Rain = 0
KMD1 090114Z 21000KT 26/M02 A297 RMK A01 T02601016  RH  016%=      5-min Rain = 0
KMD1 090115Z 21001KT 26/M02 A297 RMK A01 T02621019  RH  016%=      5-min Rain = 0
KMD1 090116Z 20000KT 26/M02 A297 RMK A01 T02641020  RH  015%=      5-min Rain = 0
KMD1 090117Z 00000KT 27/M02 A297 RMK A01 T02651021  RH  015%=      5-min Rain = 0
KMD1 090118Z 00000KT 27/M02 A297 RMK A01 T02661022  RH  015%=      5-min Rain = 0
KMD1 090119Z 00000KT 27/M02 A297 RMK A01 T02671021  RH  015%=      5-min Rain = 0
KMD1 090120Z 00000KT 27/M02 A2969 RMK A01 T02661024  RH  015%=      5-min Rain = 0
KMD1 090121Z 00000KT 27/M02 A2969 RMK A01 T02661020  RH  015%=      5-min Rain = 0
KMD1 090122Z 00000KT 26/M01 A2969 RMK A01 T02631014  RH  016%=      5-min Rain = 0
KMD1 090123Z 02000KT 26/M01 A2969 RMK A01 T02571011  RH  017%=      5-min Rain = 0
KMD1 090124Z 03001KT 25/M01 A2969 RMK A01 T02511006  RH  018%=      5-min Rain = 0
KMD1 090125Z 02000KT 24/M00 A2969 RMK A01 T02441003  RH  020%=      5-min Rain = 0
KMD1 090126Z 00000KT 24/M01 A2969 RMK A01 T02391006  RH  020%=      5-min Rain = 0
KMD1 090127Z 01001KT 24/M01 A2969 RMK A01 T02381007  RH  020%=      5-min Rain = 0
KMD1 090128Z 01001KT 24/M00 A2969 RMK A01 T02371004  RH  020%=      5-min Rain = 0
KMD1 090129Z 01000KT 24/M00 A2969 RMK A01 T02351003  RH  021%=      5-min Rain = 0
KMD1 090130Z 00000KT 23/M00 A2969 RMK A01 T02331004  RH  021%=      5-min Rain = 0
KMD1 090131Z 00000KT 23/M01 A2969 RMK A01 T02331005  RH  021%=      5-min Rain = 0
KMD1 090132Z 01000KT 23/00 A2969 RMK A01 T02330001  RH  022%=      5-min Rain = 0
KMD1 090133Z 02001KT 23/00 A2969 RMK A01 T023000-0  RH  022%=      5-min Rain = 0
KMD1 090134Z 04001KT 23/00 A2969 RMK A01 T022900-0  RH  022%=      5-min Rain = 0
KMD1 090135Z 05000KT 23/M00 A2969 RMK A01 T02281001  RH  022%=      5-min Rain = 0
KMD1 090136Z 00000KT 23/M00 A2969 RMK A01 T02271002  RH  022%=      5-min Rain = 0
KMD1 090137Z 00000KT 23/M00 A2969 RMK A01 T02261002  RH  022%=      5-min Rain = 0
KMD1 090138Z 03000KT 23/M00 A2969 RMK A01 T02251003  RH  022%=      5-min Rain = 0
KMD1 090139Z 03001KT 22/M00 A2969 RMK A01 T02241004  RH  022%=      5-min Rain = 0
KMD1 090140Z 02002KT 22/M00 A2969 RMK A01 T02231003  RH  022%=      5-min Rain = 0
KMD1 090141Z 02001KT 22/M00 A297 RMK A01 T02221004  RH  022%=      5-min Rain = 0
KMD1 090142Z 02001KT 22/M01 A297 RMK A01 T02211006  RH  022%=      5-min Rain = 0
KMD1 090143Z 01000KT 22/M01 A297 RMK A01 T02191006  RH  022%=      5-min Rain = 0
KMD1 090144Z 35000KT 22/M01 A297 RMK A01 T02201013  RH  021%=      5-min Rain = 0
KMD1 090145Z 33000KT 22/M01 A297 RMK A01 T02241008  RH  021%=      5-min Rain = 0
KMD1 090146Z 00000KT 22/M01 A297 RMK A01 T02241011  RH  021%=      5-min Rain = 0
KMD1 090147Z 00000KT 22/M01 A297 RMK A01 T02231008  RH  021%=      5-min Rain = 0
KMD1 090148Z 28000KT 22/M00 A297 RMK A01 T02191004  RH  023%=      5-min Rain = 0
KMD1 090149Z 27001KT 22/M01 A297 RMK A01 T02171007  RH  022%=      5-min Rain = 0
KMD1 090150Z 26001KT 22/M01 A297 RMK A01 T02151005  RH  023%=      5-min Rain = 0
KMD1 090151Z 26002KT 21/M01 A297 RMK A01 T02141012  RH  022%=      5-min Rain = 0
KMD1 090152Z 24003KT 22/M01 A297 RMK A01 T02181014  RH  021%=      5-min Rain = 0
KMD1 090153Z 24003KT 22/M02 A297 RMK A01 T02231019  RH  020%=      5-min Rain = 0
KMD1 090154Z 26002KT 23/M01 A297 RMK A01 T02311014  RH  020%=      5-min Rain = 0
KMD1 090155Z 27003KT 23/M01 A297 RMK A01 T02281006  RH  021%=      5-min Rain = 0
KMD1 090156Z 25003KT 22/M00 A297 RMK A01 T02191004  RH  023%=      5-min Rain = 0
KMD1 090157Z 23002KT 21/M01 A297 RMK A01 T02121010  RH  023%=      5-min Rain = 0
KMD1 090158Z 24003KT 22/M02 A297 RMK A01 T02151022  RH  020%=      5-min Rain = 0
KMD1 090159Z 26003KT 22/M02 A297 RMK A01 T02221020  RH  020%=      5-min Rain = 0
KMD1 090200Z 24004KT 22/M02 A297 RMK A01 T02241015  RH  020%=      5-min Rain = 0
KMD1 090201Z 25004KT 22/M02 A297 RMK A01 T02241017  RH  020%=      5-min Rain = 0
KMD1 090202Z 25004KT 22/M02 A297 RMK A01 T02241018  RH  020%=      5-min Rain = 0
KMD1 090203Z 25004KT 23/M02 A297 RMK A01 T02281020  RH  019%=      5-min Rain = 0
KMD1 090204Z 25004KT 23/M02 A297 RMK A01 T02311021  RH  018%=      5-min Rain = 0
KMD1 090205Z 25004KT 24/M02 A297 RMK A01 T02351021  RH  018%=      5-min Rain = 0
KMD1 090206Z 24004KT 24/M02 A297 RMK A01 T02361021  RH  018%=      5-min Rain = 0
KMD1 090207Z 24003KT 23/M01 A297 RMK A01 T02331009  RH  020%=      5-min Rain = 0
KMD1 090208Z 24003KT 23/M00 A297 RMK A01 T02251004  RH  022%=      5-min Rain = 0
KMD1 090209Z 23002KT 22/M01 A297 RMK A01 T02171010  RH  022%=      5-min Rain = 0
KMD1 090210Z 24002KT 21/M01 A297 RMK A01 T02131012  RH  022%=      5-min Rain = 0
KMD1 090211Z 24002KT 21/M01 A297 RMK A01 T02101007  RH  023%=      5-min Rain = 0
KMD1 090212Z 26001KT 21/M01 A297 RMK A01 T02061005  RH  024%=      5-min Rain = 0
KMD1 090213Z 25001KT 20/M00 A297 RMK A01 T02031003  RH  025%=      5-min Rain = 0
KMD1 090214Z 23001KT 20/M00 A297 RMK A01 T02001002  RH  026%=      5-min Rain = 0
KMD1 090215Z 24000KT 20/M00 A297 RMK A01 T01971002  RH  026%=      5-min Rain = 0
KMD1 090216Z 31000KT 20/00 A2971 RMK A01 T019500-0  RH  027%=      5-min Rain = 0
KMD1 090217Z 31001KT 19/00 A2971 RMK A01 T01930001  RH  027%=      5-min Rain = 0
KMD1 090218Z 31001KT 19/M00 A2971 RMK A01 T01931001  RH  027%=      5-min Rain = 0
KMD1 090219Z 30000KT 19/M00 A2971 RMK A01 T01921003  RH  027%=      5-min Rain = 0
KMD1 090220Z 00000KT 19/M00 A2971 RMK A01 T01921003  RH  027%=      5-min Rain = 0
KMD1 090221Z 19000KT 19/M00 A2971 RMK A01 T01921002  RH  027%=      5-min Rain = 0
KMD1 090222Z 19000KT 19/M00 A2971 RMK A01 T01911002  RH  027%=      5-min Rain = 0
KMD1 090223Z 22000KT 19/M00 A2971 RMK A01 T01911001  RH  027%=      5-min Rain = 0
KMD1 090224Z 00000KT 19/M00 A2971 RMK A01 T01901001  RH  028%=      5-min Rain = 0
KMD1 090225Z 22000KT 19/M00 A2971 RMK A01 T01891001  RH  028%=      5-min Rain = 0
KMD1 090226Z 22000KT 19/00 A2971 RMK A01 T018900-0  RH  028%=      5-min Rain = 0
KMD1 090227Z 00000KT 19/00 A2971 RMK A01 T01880003  RH  029%=      5-min Rain = 0
KMD1 090228Z 00000KT 19/00 A2971 RMK A01 T01850004  RH  029%=      5-min Rain = 0
KMD1 090229Z 25000KT 18/01 A2971 RMK A01 T01840005  RH  030%=      5-min Rain = 0
KMD1 090230Z 00000KT 18/00 A2971 RMK A01 T01840002  RH  029%=      5-min Rain = 0
KMD1 090231Z 00000KT 18/M00 A2971 RMK A01 T01831001  RH  029%=      5-min Rain = 0
KMD1 090232Z 00000KT 18/M00 A2971 RMK A01 T01831001  RH  029%=      5-min Rain = 0
KMD1 090233Z 00000KT 18/00 A2971 RMK A01 T01830001  RH  029%=      5-min Rain = 0
KMD1 090234Z 22001KT 18/00 A2971 RMK A01 T01830001  RH  029%=      5-min Rain = 0
KMD1 090235Z 20002KT 18/00 A2971 RMK A01 T01820000  RH  029%=      5-min Rain = 0
KMD1 090236Z 20001KT 18/00 A2971 RMK A01 T018200-0  RH  029%=      5-min Rain = 0
KMD1 090237Z 21000KT 18/00 A2971 RMK A01 T01820001  RH  030%=      5-min Rain = 0
KMD1 090238Z 20000KT 18/00 A2971 RMK A01 T01820002  RH  030%=      5-min Rain = 0
KMD1 090239Z 00000KT 18/00 A2971 RMK A01 T01810002  RH  030%=      5-min Rain = 0
KMD1 090240Z 00000KT 18/M00 A2971 RMK A01 T01781001  RH  030%=      5-min Rain = 0
KMD1 090241Z 00000KT 18/M01 A2972 RMK A01 T01771005  RH  029%=      5-min Rain = 0
KMD1 090242Z 00000KT 18/M01 A2972 RMK A01 T01791006  RH  029%=      5-min Rain = 0
KMD1 090243Z 00000KT 18/00 A2972 RMK A01 T018000-0  RH  030%=      5-min Rain = 0
KMD1 090244Z 00000KT 18/00 A2972 RMK A01 T01780001  RH  030%=      5-min Rain = 0
KMD1 090245Z 00000KT 18/00 A2972 RMK A01 T01760002  RH  031%=      5-min Rain = 0
KMD1 090246Z 00000KT 17/00 A2972 RMK A01 T01740003  RH  031%=      5-min Rain = 0
KMD1 090247Z 00000KT 17/00 A2972 RMK A01 T01710003  RH  032%=      5-min Rain = 0
KMD1 090248Z 00000KT 17/00 A2972 RMK A01 T01690002  RH  032%=      5-min Rain = 0
KMD1 090249Z 00000KT 17/00 A2972 RMK A01 T01680002  RH  032%=      5-min Rain = 0
KMD1 090250Z 00000KT 17/00 A2972 RMK A01 T01680000  RH  032%=      5-min Rain = 0
KMD1 090251Z 00000KT 17/00 A2972 RMK A01 T01690003  RH  032%=      5-min Rain = 0
KMD1 090252Z 00000KT 17/00 A2972 RMK A01 T01680003  RH  033%=      5-min Rain = 0
KMD1 090253Z 22000KT 17/00 A2972 RMK A01 T01680001  RH  032%=      5-min Rain = 0
KMD1 090254Z 24001KT 17/00 A2972 RMK A01 T01680002  RH  032%=      5-min Rain = 0
KMD1 090255Z 24001KT 17/00 A2972 RMK A01 T01670002  RH  033%=      5-min Rain = 0
KMD1 090256Z 23000KT 17/00 A2972 RMK A01 T01660004  RH  033%=      5-min Rain = 0
KMD1 090257Z 25000KT 16/00 A2972 RMK A01 T01640003  RH  034%=      5-min Rain = 0
KMD1 090258Z 25001KT 16/00 A2972 RMK A01 T01640001  RH  033%=      5-min Rain = 0
KMD1 090259Z 28001KT 17/00 A2972 RMK A01 T01650004  RH  034%=      5-min Rain = 0
KMD1 090300Z 28001KT 16/00 A2972 RMK A01 T01640002  RH  033%=      5-min Rain = 0
KMD1 090301Z 28001KT 16/00 A2972 RMK A01 T01640002  RH  033%=      5-min Rain = 0
KMD1 090302Z 30001KT 16/00 A2972 RMK A01 T016400-0  RH  033%=      5-min Rain = 0
KMD1 090303Z 29001KT 17/M00 A2972 RMK A01 T01651001  RH  032%=      5-min Rain = 0
KMD1 090304Z 28001KT 17/M00 A2972 RMK A01 T01661001  RH  032%=      5-min Rain = 0
KMD1 090305Z 28001KT 17/M00 A2972 RMK A01 T01651003  RH  032%=      5-min Rain = 0
KMD1 090306Z 29001KT 17/M00 A2972 RMK A01 T01681004  RH  031%=      5-min Rain = 0
KMD1 090307Z 29001KT 17/M01 A2972 RMK A01 T01711005  RH  030%=      5-min Rain = 0
KMD1 090308Z 29001KT 17/M01 A2972 RMK A01 T01741006  RH  029%=      5-min Rain = 0
KMD1 090309Z 30001KT 18/M01 A2972 RMK A01 T01751005  RH  029%=      5-min Rain = 0
KMD1 090310Z 31001KT 17/M00 A2972 RMK A01 T01731004  RH  030%=      5-min Rain = 0
KMD1 090311Z 30001KT 17/M00 A2972 RMK A01 T01691004  RH  031%=      5-min Rain = 0
KMD1 090312Z 29001KT 17/M01 A2972 RMK A01 T01681006  RH  030%=      5-min Rain = 0
KMD1 090313Z 29001KT 17/M01 A2972 RMK A01 T01681006  RH  031%=      5-min Rain = 0
KMD1 090314Z 31000KT 17/M01 A2972 RMK A01 T01671007  RH  030%=      5-min Rain = 0
KMD1 090315Z 30001KT 17/M01 A2972 RMK A01 T01661008  RH  031%=      5-min Rain = 0
KMD1 090316Z 32000KT 17/M01 A2972 RMK A01 T01651007  RH  031%=      5-min Rain = 0
KMD1 090317Z 26000KT 17/M01 A2972 RMK A01 T01651008  RH  031%=      5-min Rain = 0
KMD1 090318Z 26001KT 17/M01 A2972 RMK A01 T01661007  RH  031%=      5-min Rain = 0
KMD1 090319Z 25001KT 17/M01 A2972 RMK A01 T01681007  RH  030%=      5-min Rain = 0
KMD1 090320Z 25000KT 17/M01 A2972 RMK A01 T01711008  RH  030%=      5-min Rain = 0
KMD1 090321Z 00000KT 17/M01 A2972 RMK A01 T01731009  RH  029%=      5-min Rain = 0
KMD1 090322Z 35000KT 17/M01 A2972 RMK A01 T01721008  RH  029%=      5-min Rain = 0
KMD1 090323Z 35001KT 17/M01 A2972 RMK A01 T01711008  RH  030%=      5-min Rain = 0
KMD1 090324Z 01001KT 17/M01 A2972 RMK A01 T01711008  RH  030%=      5-min Rain = 0
KMD1 090325Z 36003KT 17/M01 A2972 RMK A01 T01701007  RH  030%=      5-min Rain = 0
KMD1 090326Z 36004KT 17/M01 A2972 RMK A01 T01691008  RH  030%=      5-min Rain = 0
KMD1 090327Z 35004KT 17/M01 A2972 RMK A01 T01681008  RH  030%=      5-min Rain = 0
KMD1 090328Z 35003KT 17/M01 A2972 RMK A01 T01671007  RH  030%=      5-min Rain = 0
KMD1 090329Z 35003KT 17/M01 A2972 RMK A01 T01671009  RH  030%=      5-min Rain = 0
KMD1 090330Z 36003KT 17/M01 A2972 RMK A01 T01671010  RH  030%=      5-min Rain = 0
KMD1 090331Z 36003KT 17/M01 A2972 RMK A01 T01691010  RH  030%=      5-min Rain = 0
KMD1 090332Z 00003KT 17/M01 A2972 RMK A01 T01691010  RH  030%=      5-min Rain = 0
KMD1 090333Z 00002KT 17/M01 A2972 RMK A01 T01681010  RH  030%=      5-min Rain = 0
KMD1 090334Z 01002KT 17/M01 A2971 RMK A01 T01691010  RH  030%=      5-min Rain = 0
KMD1 090335Z 36002KT 17/M01 A2971 RMK A01 T01691009  RH  030%=      5-min Rain = 0
KMD1 090336Z 36003KT 17/M01 A2971 RMK A01 T01681010  RH  030%=      5-min Rain = 0
KMD1 090337Z 35003KT 17/M01 A2971 RMK A01 T01671011  RH  030%=      5-min Rain = 0
KMD1 090338Z 34002KT 17/M01 A2971 RMK A01 T01671011  RH  030%=      5-min Rain = 0
KMD1 090339Z 34001KT 17/M01 A2971 RMK A01 T01671012  RH  030%=      5-min Rain = 0
KMD1 090340Z 34002KT 17/M01 A2971 RMK A01 T01671012  RH  029%=      5-min Rain = 0
KMD1 090341Z 33003KT 17/M01 A2971 RMK A01 T01681012  RH  029%=      5-min Rain = 0
KMD1 090342Z 32003KT 17/M01 A2971 RMK A01 T01671008  RH  030%=      5-min Rain = 0
KMD1 090343Z 32002KT 16/M01 A2971 RMK A01 T01621009  RH  031%=      5-min Rain = 0
KMD1 090344Z 33002KT 16/M01 A2971 RMK A01 T01611011  RH  031%=      5-min Rain = 0
KMD1 090345Z 34002KT 16/M01 A2971 RMK A01 T01621010  RH  031%=      5-min Rain = 0
KMD1 090346Z 34002KT 16/M01 A2971 RMK A01 T01611010  RH  031%=      5-min Rain = 0
KMD1 090347Z 36002KT 16/M01 A2971 RMK A01 T01611010  RH  031%=      5-min Rain = 0
KMD1 090348Z 00002KT 16/M01 A2971 RMK A01 T01611010  RH  031%=      5-min Rain = 0
KMD1 090349Z 36001KT 16/M01 A2971 RMK A01 T01601009  RH  031%=      5-min Rain = 0
KMD1 090350Z 35001KT 16/M01 A2971 RMK A01 T01591007  RH  032%=      5-min Rain = 0
KMD1 090351Z 35001KT 16/M01 A2971 RMK A01 T01581008  RH  032%=      5-min Rain = 0
KMD1 090352Z 00000KT 16/M01 A2971 RMK A01 T01571010  RH  032%=      5-min Rain = 0
KMD1 090353Z 34000KT 16/M01 A2971 RMK A01 T01571009  RH  032%=      5-min Rain = 0
KMD1 090354Z 31000KT 16/M01 A2971 RMK A01 T01561008  RH  033%=      5-min Rain = 0
KMD1 090355Z 22001KT 16/00 A2971 RMK A01 T01560003  RH  035%=      5-min Rain = 0
KMD1 090356Z 19000KT 16/01 A2971 RMK A01 T01550012  RH  038%=      5-min Rain = 0
KMD1 090357Z 00000KT 15/02 A2971 RMK A01 T01540024  RH  042%=      5-min Rain = 0
KMD1 090358Z 00000KT 15/03 A2972 RMK A01 T01530027  RH  043%=      5-min Rain = 0
KMD1 090359Z 00000KT 15/02 A2972 RMK A01 T01510024  RH  042%=      5-min Rain = 0
KMD1 090400Z 25000KT 15/01 A2972 RMK A01 T01490012  RH  039%=      5-min Rain = 0
KMD1 090401Z 26000KT 14/00 A2972 RMK A01 T014400-0  RH  037%=      5-min Rain = 0
KMD1 090402Z 26001KT 14/00 A2972 RMK A01 T01400003  RH  039%=      5-min Rain = 0
KMD1 090403Z 24001KT 14/01 A2972 RMK A01 T01390009  RH  041%=      5-min Rain = 0
KMD1 090404Z 22001KT 14/01 A2972 RMK A01 T01380010  RH  042%=      5-min Rain = 0
KMD1 090405Z 22001KT 14/01 A2972 RMK A01 T01360010  RH  042%=      5-min Rain = 0
KMD1 090406Z 21001KT 14/01 A2972 RMK A01 T01350013  RH  043%=      5-min Rain = 0
KMD1 090407Z 22001KT 14/02 A2972 RMK A01 T01350015  RH  044%=      5-min Rain = 0
KMD1 090408Z 21000KT 14/02 A2972 RMK A01 T01350021  RH  046%=      5-min Rain = 0
KMD1 090409Z 00000KT 14/03 A2972 RMK A01 T01360026  RH  047%=      5-min Rain = 0
KMD1 090410Z 00000KT 14/03 A2972 RMK A01 T01360027  RH  047%=      5-min Rain = 0
KMD1 090411Z 00000KT 14/02 A2972 RMK A01 T01360024  RH  046%=      5-min Rain = 0
KMD1 090412Z 00000KT 14/02 A2972 RMK A01 T01370024  RH  046%=      5-min Rain = 0
KMD1 090413Z 30000KT 14/02 A2972 RMK A01 T01380022  RH  046%=      5-min Rain = 0
KMD1 090414Z 32001KT 14/02 A2972 RMK A01 T01380020  RH  045%=      5-min Rain = 0
KMD1 090415Z 33001KT 14/02 A2971 RMK A01 T01380018  RH  044%=      5-min Rain = 0
KMD1 090416Z 33001KT 14/01 A2971 RMK A01 T01380014  RH  043%=      5-min Rain = 0
KMD1 090417Z 33001KT 14/01 A2971 RMK A01 T01390012  RH  042%=      5-min Rain = 0
KMD1 090418Z 34001KT 14/01 A2971 RMK A01 T01390007  RH  041%=      5-min Rain = 0
KMD1 090419Z 33000KT 14/01 A2971 RMK A01 T01390009  RH  041%=      5-min Rain = 0
KMD1 090420Z 32000KT 14/01 A2971 RMK A01 T01390011  RH  042%=      5-min Rain = 0
KMD1 090421Z 00000KT 14/01 A2971 RMK A01 T01390010  RH  041%=      5-min Rain = 0
KMD1 090422Z 00000KT 14/01 A2972 RMK A01 T01390011  RH  042%=      5-min Rain = 0
KMD1 090423Z 18000KT 14/01 A2972 RMK A01 T01390005  RH  040%=      5-min Rain = 0
KMD1 090424Z 18001KT 14/01 A2972 RMK A01 T01380009  RH  042%=      5-min Rain = 0
KMD1 090425Z 19001KT 14/01 A2972 RMK A01 T01370013  RH  043%=      5-min Rain = 0
KMD1 090426Z 20003KT 14/01 A2972 RMK A01 T01370014  RH  043%=      5-min Rain = 0
KMD1 090427Z 21003KT 14/02 A2972 RMK A01 T01360015  RH  044%=      5-min Rain = 0
KMD1 090428Z 22003KT 14/02 A2972 RMK A01 T01370020  RH  045%=      5-min Rain = 0
KMD1 090429Z 23002KT 14/03 A2972 RMK A01 T01360025  RH  047%=      5-min Rain = 0
KMD1 090430Z 28001KT 14/03 A2972 RMK A01 T01360025  RH  047%=      5-min Rain = 0
KMD1 090431Z 30002KT 14/02 A2972 RMK A01 T01350021  RH  046%=      5-min Rain = 0
KMD1 090432Z 31003KT 13/01 A2971 RMK A01 T01340013  RH  044%=      5-min Rain = 0
KMD1 090433Z 29003KT 13/00 A2972 RMK A01 T01310003  RH  042%=      5-min Rain = 0
KMD1 090434Z 24003KT 12/M00 A2972 RMK A01 T01241002  RH  042%=      5-min Rain = 0
KMD1 090435Z 24003KT 12/00 A2972 RMK A01 T01200004  RH  045%=      5-min Rain = 0
KMD1 090436Z 24003KT 12/00 A2972 RMK A01 T01190004  RH  045%=      5-min Rain = 0
KMD1 090437Z 25003KT 12/00 A2972 RMK A01 T01190004  RH  045%=      5-min Rain = 0
KMD1 090438Z 26003KT 12/00 A2972 RMK A01 T01200003  RH  044%=      5-min Rain = 0
KMD1 090439Z 26003KT 12/00 A2972 RMK A01 T01210000  RH  043%=      5-min Rain = 0
KMD1 090440Z 25004KT 12/00 A2972 RMK A01 T012100-0  RH  043%=      5-min Rain = 0
KMD1 090441Z 25003KT 12/M00 A2972 RMK A01 T01191001  RH  044%=      5-min Rain = 0
KMD1 090442Z 26003KT 12/00 A2972 RMK A01 T011700-0  RH  045%=      5-min Rain = 0
KMD1 090443Z 26003KT 12/00 A2972 RMK A01 T01150002  RH  045%=      5-min Rain = 0
KMD1 090444Z 26003KT 11/00 A2972 RMK A01 T01140003  RH  046%=      5-min Rain = 0
KMD1 090445Z 26003KT 12/01 A2972 RMK A01 T01150005  RH  047%=      5-min Rain = 0
KMD1 090446Z 26004KT 12/01 A2972 RMK A01 T01170007  RH  047%=      5-min Rain = 0
KMD1 090447Z 25003KT 12/01 A2972 RMK A01 T01200008  RH  046%=      5-min Rain = 0
KMD1 090448Z 25003KT 12/01 A2972 RMK A01 T01230008  RH  045%=      5-min Rain = 0
KMD1 090449Z 26004KT 13/01 A2972 RMK A01 T01250008  RH  045%=      5-min Rain = 0
KMD1 090450Z 26003KT 13/01 A2972 RMK A01 T01280007  RH  044%=      5-min Rain = 0
KMD1 090451Z 25003KT 13/01 A2972 RMK A01 T01300006  RH  043%=      5-min Rain = 0
KMD1 090452Z 25003KT 13/01 A2972 RMK A01 T01300007  RH  043%=      5-min Rain = 0
KMD1 090453Z 25002KT 13/01 A2972 RMK A01 T01300008  RH  043%=      5-min Rain = 0
KMD1 090454Z 24002KT 13/01 A2972 RMK A01 T01300010  RH  044%=      5-min Rain = 0
KMD1 090455Z 25002KT 13/01 A2972 RMK A01 T01310010  RH  044%=      5-min Rain = 0
KMD1 090456Z 25002KT 13/01 A2972 RMK A01 T01320010  RH  044%=      5-min Rain = 0
KMD1 090457Z 25001KT 13/01 A2972 RMK A01 T01320011  RH  043%=      5-min Rain = 0
KMD1 090458Z 26001KT 13/01 A2972 RMK A01 T01340011  RH  043%=      5-min Rain = 0
KMD1 090459Z 23000KT 14/01 A2972 RMK A01 T01350011  RH  043%=      5-min Rain = 0

Page generated in 0.065 seconds.